<?xml version="1.0" encoding="UTF-8" standalone="no" ?>
<gpx xmlns="http://www.topografix.com/GPX/1/1" xmlns:xsi="http://www.w3.org/2001/XMLSchema-instance" xsi:schemaLocation="http://www.topografix.com/GPX/1/1 http://www.topografix.com/GPX/1/1/gpx.xsd" version="1.1" creator="VisuGPX - https://www.visugpx.com">
  <metadata>
    <name>Firstplan Boenloesgrab Wassmatt Cote904 Eschbach</name>
    <desc><![CDATA[Col du Firstplan Boenloesgrab Eschbach]]></desc>
  </metadata>
  <trk>
    <name><![CDATA[Firstplan Boenloesgrab Wassmatt Cote904 Eschbach_1]]></name>
    <trkseg>
      <trkpt lat="47.9985" lon="7.18437">
        <ele>720.2</ele>
        <time>2016-06-30T18:41:01.000Z</time>
      </trkpt>
      <trkpt lat="47.99844" lon="7.18431">
        <ele>720.7</ele>
        <time>2016-06-30T18:41:03.000Z</time>
      </trkpt>
      <trkpt lat="47.99841" lon="7.18428">
        <ele>720.9</ele>
        <time>2016-06-30T18:41:04.000Z</time>
      </trkpt>
      <trkpt lat="47.99835" lon="7.18421">
        <ele>721.6</ele>
        <time>2016-06-30T18:41:06.000Z</time>
      </trkpt>
      <trkpt lat="47.9983" lon="7.18413">
        <ele>721.8</ele>
        <time>2016-06-30T18:41:08.000Z</time>
      </trkpt>
      <trkpt lat="47.99825" lon="7.18404">
        <ele>721.5</ele>
        <time>2016-06-30T18:41:10.000Z</time>
      </trkpt>
      <trkpt lat="47.99813" lon="7.18374">
        <ele>721</ele>
        <time>2016-06-30T18:41:16.000Z</time>
      </trkpt>
      <trkpt lat="47.99805" lon="7.18353">
        <ele>721</ele>
        <time>2016-06-30T18:41:20.000Z</time>
      </trkpt>
      <trkpt lat="47.99803" lon="7.18348">
        <ele>721.1</ele>
        <time>2016-06-30T18:41:21.000Z</time>
      </trkpt>
      <trkpt lat="47.99771" lon="7.18269">
        <ele>722.1</ele>
        <time>2016-06-30T18:41:36.000Z</time>
      </trkpt>
      <trkpt lat="47.99764" lon="7.18253">
        <ele>722.7</ele>
        <time>2016-06-30T18:41:39.000Z</time>
      </trkpt>
      <trkpt lat="47.99758" lon="7.18244">
        <ele>722.9</ele>
        <time>2016-06-30T18:41:41.000Z</time>
      </trkpt>
      <trkpt lat="47.99752" lon="7.18237">
        <ele>723.1</ele>
        <time>2016-06-30T18:41:43.000Z</time>
      </trkpt>
      <trkpt lat="47.99738" lon="7.18223">
        <ele>723.5</ele>
        <time>2016-06-30T18:41:47.000Z</time>
      </trkpt>
      <trkpt lat="47.99699" lon="7.18184">
        <ele>725.7</ele>
        <time>2016-06-30T18:41:59.000Z</time>
      </trkpt>
      <trkpt lat="47.99688" lon="7.18173">
        <ele>726.7</ele>
        <time>2016-06-30T18:42:02.000Z</time>
      </trkpt>
      <trkpt lat="47.99682" lon="7.18165">
        <ele>727.2</ele>
        <time>2016-06-30T18:42:04.000Z</time>
      </trkpt>
      <trkpt lat="47.99645" lon="7.18109">
        <ele>724.9</ele>
        <time>2016-06-30T18:42:17.000Z</time>
      </trkpt>
      <trkpt lat="47.99635" lon="7.18099">
        <ele>724.8</ele>
        <time>2016-06-30T18:42:20.000Z</time>
      </trkpt>
      <trkpt lat="47.99628" lon="7.18094">
        <ele>724.9</ele>
        <time>2016-06-30T18:42:22.000Z</time>
      </trkpt>
      <trkpt lat="47.99621" lon="7.1809">
        <ele>725.2</ele>
        <time>2016-06-30T18:42:24.000Z</time>
      </trkpt>
      <trkpt lat="47.99613" lon="7.18087">
        <ele>725.5</ele>
        <time>2016-06-30T18:42:26.000Z</time>
      </trkpt>
      <trkpt lat="47.99602" lon="7.18084">
        <ele>726.1</ele>
        <time>2016-06-30T18:42:29.000Z</time>
      </trkpt>
      <trkpt lat="47.99595" lon="7.18082">
        <ele>726.3</ele>
        <time>2016-06-30T18:42:31.000Z</time>
      </trkpt>
      <trkpt lat="47.99557" lon="7.18074">
        <ele>727.1</ele>
        <time>2016-06-30T18:42:42.000Z</time>
      </trkpt>
      <trkpt lat="47.99554" lon="7.18073">
        <ele>727.2</ele>
        <time>2016-06-30T18:42:43.000Z</time>
      </trkpt>
      <trkpt lat="47.99552" lon="7.18072">
        <ele>727.3</ele>
        <time>2016-06-30T18:42:44.000Z</time>
      </trkpt>
      <trkpt lat="47.99533" lon="7.18057">
        <ele>728.1</ele>
        <time>2016-06-30T18:42:53.000Z</time>
      </trkpt>
      <trkpt lat="47.99527" lon="7.1805">
        <ele>728.7</ele>
        <time>2016-06-30T18:42:56.000Z</time>
      </trkpt>
      <trkpt lat="47.99523" lon="7.18045">
        <ele>729.1</ele>
        <time>2016-06-30T18:42:58.000Z</time>
      </trkpt>
      <trkpt lat="47.99517" lon="7.18037">
        <ele>729.8</ele>
        <time>2016-06-30T18:43:01.000Z</time>
      </trkpt>
      <trkpt lat="47.9951" lon="7.18022">
        <ele>731.3</ele>
        <time>2016-06-30T18:43:06.000Z</time>
      </trkpt>
      <trkpt lat="47.99507" lon="7.18012">
        <ele>732.2</ele>
        <time>2016-06-30T18:43:09.000Z</time>
      </trkpt>
      <trkpt lat="47.99503" lon="7.17999">
        <ele>733.5</ele>
        <time>2016-06-30T18:43:13.000Z</time>
      </trkpt>
      <trkpt lat="47.99503" lon="7.17996">
        <ele>733.6</ele>
        <time>2016-06-30T18:43:14.000Z</time>
      </trkpt>
      <trkpt lat="47.99496" lon="7.17973">
        <ele>734.8</ele>
        <time>2016-06-30T18:43:21.000Z</time>
      </trkpt>
      <trkpt lat="47.99491" lon="7.17961">
        <ele>736</ele>
        <time>2016-06-30T18:43:25.000Z</time>
      </trkpt>
      <trkpt lat="47.99476" lon="7.17928">
        <ele>741.3</ele>
        <time>2016-06-30T18:43:36.000Z</time>
      </trkpt>
      <trkpt lat="47.99475" lon="7.17925">
        <ele>741.9</ele>
        <time>2016-06-30T18:43:37.000Z</time>
      </trkpt>
      <trkpt lat="47.99434" lon="7.17832">
        <ele>757.3</ele>
        <time>2016-06-30T18:44:10.000Z</time>
      </trkpt>
      <trkpt lat="47.99421" lon="7.17808">
        <ele>760</ele>
        <time>2016-06-30T18:44:20.000Z</time>
      </trkpt>
      <trkpt lat="47.99418" lon="7.17801">
        <ele>760.7</ele>
        <time>2016-06-30T18:44:23.000Z</time>
      </trkpt>
      <trkpt lat="47.99414" lon="7.17791">
        <ele>761</ele>
        <time>2016-06-30T18:44:27.000Z</time>
      </trkpt>
      <trkpt lat="47.99413" lon="7.17789">
        <ele>761.1</ele>
        <time>2016-06-30T18:44:28.000Z</time>
      </trkpt>
      <trkpt lat="47.99408" lon="7.1778">
        <ele>761.3</ele>
        <time>2016-06-30T18:44:32.000Z</time>
      </trkpt>
      <trkpt lat="47.99405" lon="7.17772">
        <ele>761.6</ele>
        <time>2016-06-30T18:44:35.000Z</time>
      </trkpt>
      <trkpt lat="47.99382" lon="7.17718">
        <ele>767.6</ele>
        <time>2016-06-30T18:44:56.000Z</time>
      </trkpt>
      <trkpt lat="47.99376" lon="7.17704">
        <ele>769.8</ele>
        <time>2016-06-30T18:45:02.000Z</time>
      </trkpt>
      <trkpt lat="47.99372" lon="7.17692">
        <ele>771.4</ele>
        <time>2016-06-30T18:45:06.000Z</time>
      </trkpt>
      <trkpt lat="47.9937" lon="7.17683">
        <ele>772.4</ele>
        <time>2016-06-30T18:45:09.000Z</time>
      </trkpt>
      <trkpt lat="47.99369" lon="7.17674">
        <ele>773.1</ele>
        <time>2016-06-30T18:45:12.000Z</time>
      </trkpt>
      <trkpt lat="47.99369" lon="7.17665">
        <ele>773.5</ele>
        <time>2016-06-30T18:45:15.000Z</time>
      </trkpt>
      <trkpt lat="47.9937" lon="7.17657">
        <ele>774</ele>
        <time>2016-06-30T18:45:18.000Z</time>
      </trkpt>
      <trkpt lat="47.99372" lon="7.17652">
        <ele>774.2</ele>
        <time>2016-06-30T18:45:20.000Z</time>
      </trkpt>
      <trkpt lat="47.99377" lon="7.17636">
        <ele>774.1</ele>
        <time>2016-06-30T18:45:27.000Z</time>
      </trkpt>
      <trkpt lat="47.99401" lon="7.17591">
        <ele>772.6</ele>
        <time>2016-06-30T18:45:48.000Z</time>
      </trkpt>
      <trkpt lat="47.99403" lon="7.17586">
        <ele>772.8</ele>
        <time>2016-06-30T18:45:50.000Z</time>
      </trkpt>
      <trkpt lat="47.99413" lon="7.17557">
        <ele>775.5</ele>
        <time>2016-06-30T18:46:02.000Z</time>
      </trkpt>
      <trkpt lat="47.99417" lon="7.17543">
        <ele>777.2</ele>
        <time>2016-06-30T18:46:07.000Z</time>
      </trkpt>
      <trkpt lat="47.99422" lon="7.17505">
        <ele>782</ele>
        <time>2016-06-30T18:46:19.000Z</time>
      </trkpt>
      <trkpt lat="47.99428" lon="7.17475">
        <ele>781.3</ele>
        <time>2016-06-30T18:46:30.000Z</time>
      </trkpt>
      <trkpt lat="47.9943" lon="7.17409">
        <ele>785.5</ele>
        <time>2016-06-30T18:46:53.000Z</time>
      </trkpt>
      <trkpt lat="47.9943" lon="7.17406">
        <ele>785.4</ele>
        <time>2016-06-30T18:46:54.000Z</time>
      </trkpt>
      <trkpt lat="47.99432" lon="7.17379">
        <ele>784.8</ele>
        <time>2016-06-30T18:47:04.000Z</time>
      </trkpt>
      <trkpt lat="47.99431" lon="7.17355">
        <ele>785.5</ele>
        <time>2016-06-30T18:47:12.000Z</time>
      </trkpt>
      <trkpt lat="47.99423" lon="7.17298">
        <ele>786</ele>
        <time>2016-06-30T18:47:33.000Z</time>
      </trkpt>
      <trkpt lat="47.99421" lon="7.17291">
        <ele>786</ele>
        <time>2016-06-30T18:47:36.000Z</time>
      </trkpt>
      <trkpt lat="47.99403" lon="7.17254">
        <ele>788.2</ele>
        <time>2016-06-30T18:47:51.000Z</time>
      </trkpt>
      <trkpt lat="47.99401" lon="7.17251">
        <ele>788.6</ele>
        <time>2016-06-30T18:47:53.000Z</time>
      </trkpt>
      <trkpt lat="47.99398" lon="7.17247">
        <ele>789</ele>
        <time>2016-06-30T18:47:55.000Z</time>
      </trkpt>
      <trkpt lat="47.99396" lon="7.17246">
        <ele>789.1</ele>
        <time>2016-06-30T18:47:56.000Z</time>
      </trkpt>
      <trkpt lat="47.99395" lon="7.17244">
        <ele>789.3</ele>
        <time>2016-06-30T18:47:57.000Z</time>
      </trkpt>
      <trkpt lat="47.99364" lon="7.17206">
        <ele>790.3</ele>
        <time>2016-06-30T18:48:18.000Z</time>
      </trkpt>
      <trkpt lat="47.99356" lon="7.17199">
        <ele>790.6</ele>
        <time>2016-06-30T18:48:23.000Z</time>
      </trkpt>
      <trkpt lat="47.99336" lon="7.17186">
        <ele>792.1</ele>
        <time>2016-06-30T18:48:34.000Z</time>
      </trkpt>
      <trkpt lat="47.99322" lon="7.17179">
        <ele>792.8</ele>
        <time>2016-06-30T18:48:41.000Z</time>
      </trkpt>
      <trkpt lat="47.99303" lon="7.17172">
        <ele>794.2</ele>
        <time>2016-06-30T18:48:51.000Z</time>
      </trkpt>
      <trkpt lat="47.99291" lon="7.17169">
        <ele>795.2</ele>
        <time>2016-06-30T18:48:58.000Z</time>
      </trkpt>
      <trkpt lat="47.99236" lon="7.17148">
        <ele>797.2</ele>
        <time>2016-06-30T18:49:26.000Z</time>
      </trkpt>
      <trkpt lat="47.99195" lon="7.17135">
        <ele>799</ele>
        <time>2016-06-30T18:49:46.000Z</time>
      </trkpt>
      <trkpt lat="47.99193" lon="7.17135">
        <ele>799.2</ele>
        <time>2016-06-30T18:49:47.000Z</time>
      </trkpt>
      <trkpt lat="47.99189" lon="7.17134">
        <ele>799.6</ele>
        <time>2016-06-30T18:49:49.000Z</time>
      </trkpt>
      <trkpt lat="47.99185" lon="7.17134">
        <ele>800</ele>
        <time>2016-06-30T18:49:51.000Z</time>
      </trkpt>
      <trkpt lat="47.99172" lon="7.17133">
        <ele>801.6</ele>
        <time>2016-06-30T18:49:58.000Z</time>
      </trkpt>
      <trkpt lat="47.99157" lon="7.17134">
        <ele>802.9</ele>
        <time>2016-06-30T18:50:06.000Z</time>
      </trkpt>
      <trkpt lat="47.99145" lon="7.17135">
        <ele>803.9</ele>
        <time>2016-06-30T18:50:12.000Z</time>
      </trkpt>
      <trkpt lat="47.99132" lon="7.17139">
        <ele>805.2</ele>
        <time>2016-06-30T18:50:18.000Z</time>
      </trkpt>
      <trkpt lat="47.99115" lon="7.17145">
        <ele>807.1</ele>
        <time>2016-06-30T18:50:26.000Z</time>
      </trkpt>
      <trkpt lat="47.99102" lon="7.17151">
        <ele>808.5</ele>
        <time>2016-06-30T18:50:32.000Z</time>
      </trkpt>
      <trkpt lat="47.99086" lon="7.17161">
        <ele>810.2</ele>
        <time>2016-06-30T18:50:40.000Z</time>
      </trkpt>
      <trkpt lat="47.99082" lon="7.17162">
        <ele>810.4</ele>
        <time>2016-06-30T18:50:42.000Z</time>
      </trkpt>
      <trkpt lat="47.99079" lon="7.17162">
        <ele>810.5</ele>
        <time>2016-06-30T18:50:43.000Z</time>
      </trkpt>
      <trkpt lat="47.99077" lon="7.17162">
        <ele>810.6</ele>
        <time>2016-06-30T18:50:44.000Z</time>
      </trkpt>
      <trkpt lat="47.99075" lon="7.17162">
        <ele>810.6</ele>
        <time>2016-06-30T18:50:45.000Z</time>
      </trkpt>
      <trkpt lat="47.99071" lon="7.1716">
        <ele>810.6</ele>
        <time>2016-06-30T18:50:47.000Z</time>
      </trkpt>
      <trkpt lat="47.99068" lon="7.17157">
        <ele>810.4</ele>
        <time>2016-06-30T18:50:49.000Z</time>
      </trkpt>
      <trkpt lat="47.99063" lon="7.1715">
        <ele>810</ele>
        <time>2016-06-30T18:50:52.000Z</time>
      </trkpt>
      <trkpt lat="47.99059" lon="7.17143">
        <ele>809.5</ele>
        <time>2016-06-30T18:50:55.000Z</time>
      </trkpt>
      <trkpt lat="47.99056" lon="7.17135">
        <ele>809</ele>
        <time>2016-06-30T18:50:58.000Z</time>
      </trkpt>
      <trkpt lat="47.99029" lon="7.17057">
        <ele>808.9</ele>
        <time>2016-06-30T18:51:29.000Z</time>
      </trkpt>
      <trkpt lat="47.99022" lon="7.1702">
        <ele>811.8</ele>
        <time>2016-06-30T18:51:41.000Z</time>
      </trkpt>
      <trkpt lat="47.99018" lon="7.16987">
        <ele>814.6</ele>
        <time>2016-06-30T18:51:51.000Z</time>
      </trkpt>
      <trkpt lat="47.99018" lon="7.16973">
        <ele>815.1</ele>
        <time>2016-06-30T18:51:55.000Z</time>
      </trkpt>
      <trkpt lat="47.99025" lon="7.169">
        <ele>810.9</ele>
        <time>2016-06-30T18:52:17.000Z</time>
      </trkpt>
      <trkpt lat="47.99024" lon="7.1689">
        <ele>809.9</ele>
        <time>2016-06-30T18:52:20.000Z</time>
      </trkpt>
      <trkpt lat="47.99023" lon="7.16884">
        <ele>809.8</ele>
        <time>2016-06-30T18:52:22.000Z</time>
      </trkpt>
      <trkpt lat="47.99021" lon="7.16877">
        <ele>810</ele>
        <time>2016-06-30T18:52:24.000Z</time>
      </trkpt>
      <trkpt lat="47.99017" lon="7.16868">
        <ele>810.9</ele>
        <time>2016-06-30T18:52:27.000Z</time>
      </trkpt>
      <trkpt lat="47.99013" lon="7.16863">
        <ele>811.7</ele>
        <time>2016-06-30T18:52:29.000Z</time>
      </trkpt>
      <trkpt lat="47.9901" lon="7.16858">
        <ele>812.6</ele>
        <time>2016-06-30T18:52:31.000Z</time>
      </trkpt>
      <trkpt lat="47.9895" lon="7.16797">
        <ele>824.7</ele>
        <time>2016-06-30T18:53:04.000Z</time>
      </trkpt>
      <trkpt lat="47.98939" lon="7.16785">
        <ele>826.1</ele>
        <time>2016-06-30T18:53:10.000Z</time>
      </trkpt>
      <trkpt lat="47.98936" lon="7.16781">
        <ele>826.3</ele>
        <time>2016-06-30T18:53:12.000Z</time>
      </trkpt>
      <trkpt lat="47.98904" lon="7.1672">
        <ele>824.3</ele>
        <time>2016-06-30T18:53:35.000Z</time>
      </trkpt>
      <trkpt lat="47.98897" lon="7.16707">
        <ele>824.5</ele>
        <time>2016-06-30T18:53:40.000Z</time>
      </trkpt>
      <trkpt lat="47.98889" lon="7.16696">
        <ele>825.3</ele>
        <time>2016-06-30T18:53:45.000Z</time>
      </trkpt>
      <trkpt lat="47.98882" lon="7.16688">
        <ele>826.6</ele>
        <time>2016-06-30T18:53:49.000Z</time>
      </trkpt>
      <trkpt lat="47.9888" lon="7.16686">
        <ele>827</ele>
        <time>2016-06-30T18:53:50.000Z</time>
      </trkpt>
      <trkpt lat="47.98877" lon="7.16683">
        <ele>827.8</ele>
        <time>2016-06-30T18:53:52.000Z</time>
      </trkpt>
      <trkpt lat="47.98864" lon="7.16666">
        <ele>830.1</ele>
        <time>2016-06-30T18:54:00.000Z</time>
      </trkpt>
      <trkpt lat="47.9886" lon="7.16663">
        <ele>830.9</ele>
        <time>2016-06-30T18:54:02.000Z</time>
      </trkpt>
      <trkpt lat="47.98825" lon="7.16633">
        <ele>838</ele>
        <time>2016-06-30T18:54:22.000Z</time>
      </trkpt>
      <trkpt lat="47.98818" lon="7.16626">
        <ele>839</ele>
        <time>2016-06-30T18:54:26.000Z</time>
      </trkpt>
      <trkpt lat="47.98809" lon="7.16615">
        <ele>840.1</ele>
        <time>2016-06-30T18:54:31.000Z</time>
      </trkpt>
      <trkpt lat="47.98799" lon="7.16601">
        <ele>841.1</ele>
        <time>2016-06-30T18:54:37.000Z</time>
      </trkpt>
      <trkpt lat="47.98791" lon="7.16587">
        <ele>842</ele>
        <time>2016-06-30T18:54:43.000Z</time>
      </trkpt>
      <trkpt lat="47.98778" lon="7.16564">
        <ele>844.8</ele>
        <time>2016-06-30T18:54:53.000Z</time>
      </trkpt>
      <trkpt lat="47.98753" lon="7.16521">
        <ele>849.8</ele>
        <time>2016-06-30T18:55:10.000Z</time>
      </trkpt>
      <trkpt lat="47.98698" lon="7.16425">
        <ele>854.6</ele>
        <time>2016-06-30T18:55:48.000Z</time>
      </trkpt>
      <trkpt lat="47.98682" lon="7.16401">
        <ele>855.5</ele>
        <time>2016-06-30T18:55:58.000Z</time>
      </trkpt>
      <trkpt lat="47.9867" lon="7.16382">
        <ele>856.1</ele>
        <time>2016-06-30T18:56:06.000Z</time>
      </trkpt>
      <trkpt lat="47.98653" lon="7.16347">
        <ele>855.3</ele>
        <time>2016-06-30T18:56:19.000Z</time>
      </trkpt>
      <trkpt lat="47.98642" lon="7.1633">
        <ele>855.7</ele>
        <time>2016-06-30T18:56:26.000Z</time>
      </trkpt>
      <trkpt lat="47.98637" lon="7.16322">
        <ele>855.9</ele>
        <time>2016-06-30T18:56:29.000Z</time>
      </trkpt>
      <trkpt lat="47.98636" lon="7.1632">
        <ele>855.9</ele>
        <time>2016-06-30T18:56:30.000Z</time>
      </trkpt>
      <trkpt lat="47.98595" lon="7.16261">
        <ele>856</ele>
        <time>2016-06-30T18:56:56.000Z</time>
      </trkpt>
      <trkpt lat="47.98587" lon="7.16252">
        <ele>856.1</ele>
        <time>2016-06-30T18:57:04.000Z</time>
      </trkpt>
      <trkpt lat="47.98587" lon="7.16251">
        <ele>856.1</ele>
        <time>2016-06-30T18:57:05.000Z</time>
      </trkpt>
      <trkpt lat="47.98588" lon="7.16251">
        <ele>856.1</ele>
        <time>2016-06-30T18:57:09.000Z</time>
      </trkpt>
      <trkpt lat="47.98587" lon="7.16251">
        <ele>856</ele>
        <time>2016-06-30T18:57:12.000Z</time>
      </trkpt>
      <trkpt lat="47.98574" lon="7.16239">
        <ele>856.3</ele>
        <time>2016-06-30T18:57:22.000Z</time>
      </trkpt>
      <trkpt lat="47.98564" lon="7.16229">
        <ele>856.3</ele>
        <time>2016-06-30T18:57:28.000Z</time>
      </trkpt>
      <trkpt lat="47.9856" lon="7.16226">
        <ele>856.4</ele>
        <time>2016-06-30T18:57:30.000Z</time>
      </trkpt>
      <trkpt lat="47.98556" lon="7.16224">
        <ele>856.7</ele>
        <time>2016-06-30T18:57:32.000Z</time>
      </trkpt>
      <trkpt lat="47.98554" lon="7.16223">
        <ele>856.9</ele>
        <time>2016-06-30T18:57:33.000Z</time>
      </trkpt>
      <trkpt lat="47.9848" lon="7.16193">
        <ele>868.4</ele>
        <time>2016-06-30T18:58:08.000Z</time>
      </trkpt>
      <trkpt lat="47.9847" lon="7.16187">
        <ele>870.2</ele>
        <time>2016-06-30T18:58:12.000Z</time>
      </trkpt>
      <trkpt lat="47.98453" lon="7.16174">
        <ele>873.4</ele>
        <time>2016-06-30T18:58:20.000Z</time>
      </trkpt>
      <trkpt lat="47.98449" lon="7.1617">
        <ele>873.9</ele>
        <time>2016-06-30T18:58:22.000Z</time>
      </trkpt>
      <trkpt lat="47.98446" lon="7.16166">
        <ele>874.2</ele>
        <time>2016-06-30T18:58:24.000Z</time>
      </trkpt>
      <trkpt lat="47.98444" lon="7.16161">
        <ele>874.1</ele>
        <time>2016-06-30T18:58:26.000Z</time>
      </trkpt>
      <trkpt lat="47.98406" lon="7.16058">
        <ele>870.6</ele>
        <time>2016-06-30T18:58:57.000Z</time>
      </trkpt>
      <trkpt lat="47.98348" lon="7.15953">
        <ele>872.8</ele>
        <time>2016-06-30T18:59:30.000Z</time>
      </trkpt>
      <trkpt lat="47.98259" lon="7.15766">
        <ele>877.5</ele>
        <time>2016-06-30T19:00:29.000Z</time>
      </trkpt>
      <trkpt lat="47.98237" lon="7.15725">
        <ele>877.6</ele>
        <time>2016-06-30T19:00:42.000Z</time>
      </trkpt>
      <trkpt lat="47.9823" lon="7.15714">
        <ele>877.7</ele>
        <time>2016-06-30T19:00:46.000Z</time>
      </trkpt>
      <trkpt lat="47.9822" lon="7.15701">
        <ele>878.2</ele>
        <time>2016-06-30T19:00:51.000Z</time>
      </trkpt>
      <trkpt lat="47.98065" lon="7.15526">
        <ele>883</ele>
        <time>2016-06-30T19:02:02.000Z</time>
      </trkpt>
      <trkpt lat="47.98056" lon="7.15517">
        <ele>883.3</ele>
        <time>2016-06-30T19:02:06.000Z</time>
      </trkpt>
      <trkpt lat="47.9804" lon="7.15503">
        <ele>884.4</ele>
        <time>2016-06-30T19:02:13.000Z</time>
      </trkpt>
      <trkpt lat="47.98035" lon="7.155">
        <ele>884.7</ele>
        <time>2016-06-30T19:02:15.000Z</time>
      </trkpt>
      <trkpt lat="47.97978" lon="7.15454">
        <ele>886.5</ele>
        <time>2016-06-30T19:02:40.000Z</time>
      </trkpt>
      <trkpt lat="47.97941" lon="7.15424">
        <ele>885.9</ele>
        <time>2016-06-30T19:02:56.000Z</time>
      </trkpt>
      <trkpt lat="47.97931" lon="7.15418">
        <ele>886.5</ele>
        <time>2016-06-30T19:03:00.000Z</time>
      </trkpt>
      <trkpt lat="47.97928" lon="7.15417">
        <ele>886.7</ele>
        <time>2016-06-30T19:03:01.000Z</time>
      </trkpt>
      <trkpt lat="47.97918" lon="7.15412">
        <ele>887.7</ele>
        <time>2016-06-30T19:03:05.000Z</time>
      </trkpt>
      <trkpt lat="47.97883" lon="7.15403">
        <ele>886.6</ele>
        <time>2016-06-30T19:03:18.000Z</time>
      </trkpt>
      <trkpt lat="47.9786" lon="7.15392">
        <ele>885</ele>
        <time>2016-06-30T19:03:27.000Z</time>
      </trkpt>
      <trkpt lat="47.97852" lon="7.1539">
        <ele>884.9</ele>
        <time>2016-06-30T19:03:30.000Z</time>
      </trkpt>
      <trkpt lat="47.97846" lon="7.15389">
        <ele>884.8</ele>
        <time>2016-06-30T19:03:32.000Z</time>
      </trkpt>
      <trkpt lat="47.97808" lon="7.15388">
        <ele>886.4</ele>
        <time>2016-06-30T19:03:48.000Z</time>
      </trkpt>
      <trkpt lat="47.97799" lon="7.15386">
        <ele>886.5</ele>
        <time>2016-06-30T19:03:51.000Z</time>
      </trkpt>
      <trkpt lat="47.97791" lon="7.15384">
        <ele>886.5</ele>
        <time>2016-06-30T19:03:54.000Z</time>
      </trkpt>
      <trkpt lat="47.97786" lon="7.15381">
        <ele>886.3</ele>
        <time>2016-06-30T19:03:56.000Z</time>
      </trkpt>
      <trkpt lat="47.97782" lon="7.15378">
        <ele>886</ele>
        <time>2016-06-30T19:03:58.000Z</time>
      </trkpt>
      <trkpt lat="47.97778" lon="7.15373">
        <ele>885.5</ele>
        <time>2016-06-30T19:04:00.000Z</time>
      </trkpt>
      <trkpt lat="47.97775" lon="7.15368">
        <ele>884.9</ele>
        <time>2016-06-30T19:04:02.000Z</time>
      </trkpt>
      <trkpt lat="47.97756" lon="7.15329">
        <ele>880.5</ele>
        <time>2016-06-30T19:04:15.000Z</time>
      </trkpt>
      <trkpt lat="47.97717" lon="7.15241">
        <ele>877.7</ele>
        <time>2016-06-30T19:04:33.000Z</time>
      </trkpt>
      <trkpt lat="47.97708" lon="7.15214">
        <ele>878.6</ele>
        <time>2016-06-30T19:04:37.000Z</time>
      </trkpt>
      <trkpt lat="47.97705" lon="7.152">
        <ele>878.6</ele>
        <time>2016-06-30T19:04:39.000Z</time>
      </trkpt>
      <trkpt lat="47.97683" lon="7.14901">
        <ele>867.1</ele>
        <time>2016-06-30T19:05:10.000Z</time>
      </trkpt>
      <trkpt lat="47.97679" lon="7.14883">
        <ele>867.5</ele>
        <time>2016-06-30T19:05:12.000Z</time>
      </trkpt>
      <trkpt lat="47.97675" lon="7.14873">
        <ele>868.1</ele>
        <time>2016-06-30T19:05:13.000Z</time>
      </trkpt>
      <trkpt lat="47.97649" lon="7.14816">
        <ele>872.9</ele>
        <time>2016-06-30T19:05:20.000Z</time>
      </trkpt>
      <trkpt lat="47.97648" lon="7.14808">
        <ele>873.7</ele>
        <time>2016-06-30T19:05:21.000Z</time>
      </trkpt>
      <trkpt lat="47.97647" lon="7.14801">
        <ele>874.2</ele>
        <time>2016-06-30T19:05:22.000Z</time>
      </trkpt>
      <trkpt lat="47.97648" lon="7.14794">
        <ele>874.5</ele>
        <time>2016-06-30T19:05:23.000Z</time>
      </trkpt>
      <trkpt lat="47.97649" lon="7.14788">
        <ele>874.8</ele>
        <time>2016-06-30T19:05:24.000Z</time>
      </trkpt>
      <trkpt lat="47.9765" lon="7.14784">
        <ele>874.9</ele>
        <time>2016-06-30T19:05:25.000Z</time>
      </trkpt>
      <trkpt lat="47.97653" lon="7.1478">
        <ele>875</ele>
        <time>2016-06-30T19:05:26.000Z</time>
      </trkpt>
      <trkpt lat="47.97655" lon="7.14777">
        <ele>875</ele>
        <time>2016-06-30T19:05:27.000Z</time>
      </trkpt>
      <trkpt lat="47.97675" lon="7.14759">
        <ele>874.4</ele>
        <time>2016-06-30T19:05:38.000Z</time>
      </trkpt>
      <trkpt lat="47.97676" lon="7.14757">
        <ele>874.4</ele>
        <time>2016-06-30T19:05:41.000Z</time>
      </trkpt>
      <trkpt lat="47.97676" lon="7.14757">
        <ele>874.4</ele>
        <time>2016-06-30T19:05:43.000Z</time>
      </trkpt>
      <trkpt lat="47.97676" lon="7.14756">
        <ele>874.4</ele>
        <time>2016-06-30T19:05:44.000Z</time>
      </trkpt>
      <trkpt lat="47.97676" lon="7.14757">
        <ele>874.4</ele>
        <time>2016-06-30T19:07:21.000Z</time>
      </trkpt>
      <trkpt lat="47.97676" lon="7.14757">
        <ele>874.5</ele>
        <time>2016-06-30T19:07:24.000Z</time>
      </trkpt>
      <trkpt lat="47.97676" lon="7.14757">
        <ele>874.5</ele>
        <time>2016-06-30T19:07:53.000Z</time>
      </trkpt>
      <trkpt lat="47.97676" lon="7.14757">
        <ele>874.4</ele>
        <time>2016-06-30T19:07:56.000Z</time>
      </trkpt>
      <trkpt lat="47.97676" lon="7.14757">
        <ele>874.4</ele>
        <time>2016-06-30T19:07:58.000Z</time>
      </trkpt>
      <trkpt lat="47.97676" lon="7.14757">
        <ele>874.4</ele>
        <time>2016-06-30T19:08:00.000Z</time>
      </trkpt>
      <trkpt lat="47.97676" lon="7.14757">
        <ele>874.3</ele>
        <time>2016-06-30T19:08:04.000Z</time>
      </trkpt>
      <trkpt lat="47.97676" lon="7.14757">
        <ele>874.3</ele>
        <time>2016-06-30T19:08:37.000Z</time>
      </trkpt>
      <trkpt lat="47.97676" lon="7.14757">
        <ele>874.3</ele>
        <time>2016-06-30T19:09:25.000Z</time>
      </trkpt>
      <trkpt lat="47.97676" lon="7.14757">
        <ele>874.3</ele>
        <time>2016-06-30T19:11:36.000Z</time>
      </trkpt>
      <trkpt lat="47.97678" lon="7.14758">
        <ele>873.8</ele>
        <time>2016-06-30T19:11:38.000Z</time>
      </trkpt>
      <trkpt lat="47.97681" lon="7.14757">
        <ele>873.3</ele>
        <time>2016-06-30T19:11:40.000Z</time>
      </trkpt>
      <trkpt lat="47.97686" lon="7.14755">
        <ele>872.7</ele>
        <time>2016-06-30T19:11:43.000Z</time>
      </trkpt>
      <trkpt lat="47.97687" lon="7.14754">
        <ele>872.5</ele>
        <time>2016-06-30T19:11:44.000Z</time>
      </trkpt>
      <trkpt lat="47.97694" lon="7.1475">
        <ele>871.8</ele>
        <time>2016-06-30T19:11:48.000Z</time>
      </trkpt>
      <trkpt lat="47.97697" lon="7.14748">
        <ele>871.9</ele>
        <time>2016-06-30T19:11:50.000Z</time>
      </trkpt>
      <trkpt lat="47.97705" lon="7.14739">
        <ele>872.8</ele>
        <time>2016-06-30T19:11:56.000Z</time>
      </trkpt>
      <trkpt lat="47.97715" lon="7.14728">
        <ele>873.8</ele>
        <time>2016-06-30T19:12:03.000Z</time>
      </trkpt>
      <trkpt lat="47.97716" lon="7.14727">
        <ele>874</ele>
        <time>2016-06-30T19:12:04.000Z</time>
      </trkpt>
      <trkpt lat="47.97723" lon="7.14718">
        <ele>875.4</ele>
        <time>2016-06-30T19:12:10.000Z</time>
      </trkpt>
      <trkpt lat="47.97725" lon="7.14715">
        <ele>875.8</ele>
        <time>2016-06-30T19:12:12.000Z</time>
      </trkpt>
      <trkpt lat="47.97727" lon="7.14714">
        <ele>875.8</ele>
        <time>2016-06-30T19:12:13.000Z</time>
      </trkpt>
      <trkpt lat="47.97733" lon="7.1471">
        <ele>876.1</ele>
        <time>2016-06-30T19:12:17.000Z</time>
      </trkpt>
      <trkpt lat="47.97736" lon="7.14707">
        <ele>876.2</ele>
        <time>2016-06-30T19:12:19.000Z</time>
      </trkpt>
      <trkpt lat="47.9777" lon="7.14666">
        <ele>881.4</ele>
        <time>2016-06-30T19:12:44.000Z</time>
      </trkpt>
      <trkpt lat="47.97781" lon="7.14656">
        <ele>882.1</ele>
        <time>2016-06-30T19:12:50.000Z</time>
      </trkpt>
      <trkpt lat="47.97797" lon="7.14636">
        <ele>884</ele>
        <time>2016-06-30T19:12:59.000Z</time>
      </trkpt>
      <trkpt lat="47.978" lon="7.14631">
        <ele>884.5</ele>
        <time>2016-06-30T19:13:01.000Z</time>
      </trkpt>
      <trkpt lat="47.97807" lon="7.14621">
        <ele>885.7</ele>
        <time>2016-06-30T19:13:05.000Z</time>
      </trkpt>
      <trkpt lat="47.97818" lon="7.14595">
        <ele>889.7</ele>
        <time>2016-06-30T19:13:15.000Z</time>
      </trkpt>
      <trkpt lat="47.97827" lon="7.14578">
        <ele>891.4</ele>
        <time>2016-06-30T19:13:21.000Z</time>
      </trkpt>
      <trkpt lat="47.97841" lon="7.14557">
        <ele>893.5</ele>
        <time>2016-06-30T19:13:27.000Z</time>
      </trkpt>
      <trkpt lat="47.97844" lon="7.14553">
        <ele>894.1</ele>
        <time>2016-06-30T19:13:28.000Z</time>
      </trkpt>
      <trkpt lat="47.97847" lon="7.14551">
        <ele>894.5</ele>
        <time>2016-06-30T19:13:29.000Z</time>
      </trkpt>
      <trkpt lat="47.9785" lon="7.14549">
        <ele>894.6</ele>
        <time>2016-06-30T19:13:30.000Z</time>
      </trkpt>
      <trkpt lat="47.97854" lon="7.14549">
        <ele>894.4</ele>
        <time>2016-06-30T19:13:31.000Z</time>
      </trkpt>
      <trkpt lat="47.9786" lon="7.1455">
        <ele>893.8</ele>
        <time>2016-06-30T19:13:33.000Z</time>
      </trkpt>
      <trkpt lat="47.97862" lon="7.14551">
        <ele>893.4</ele>
        <time>2016-06-30T19:13:34.000Z</time>
      </trkpt>
      <trkpt lat="47.97865" lon="7.14552">
        <ele>892.8</ele>
        <time>2016-06-30T19:13:35.000Z</time>
      </trkpt>
      <trkpt lat="47.97898" lon="7.14583">
        <ele>881</ele>
        <time>2016-06-30T19:13:44.000Z</time>
      </trkpt>
      <trkpt lat="47.97903" lon="7.14586">
        <ele>879.9</ele>
        <time>2016-06-30T19:13:45.000Z</time>
      </trkpt>
      <trkpt lat="47.97912" lon="7.14591">
        <ele>877.9</ele>
        <time>2016-06-30T19:13:47.000Z</time>
      </trkpt>
      <trkpt lat="47.97938" lon="7.146">
        <ele>877.1</ele>
        <time>2016-06-30T19:13:53.000Z</time>
      </trkpt>
      <trkpt lat="47.97992" lon="7.14621">
        <ele>876.8</ele>
        <time>2016-06-30T19:14:06.000Z</time>
      </trkpt>
      <trkpt lat="47.98004" lon="7.14623">
        <ele>876.5</ele>
        <time>2016-06-30T19:14:09.000Z</time>
      </trkpt>
      <trkpt lat="47.98017" lon="7.14625">
        <ele>875</ele>
        <time>2016-06-30T19:14:12.000Z</time>
      </trkpt>
      <trkpt lat="47.98032" lon="7.14624">
        <ele>873.7</ele>
        <time>2016-06-30T19:14:16.000Z</time>
      </trkpt>
      <trkpt lat="47.98056" lon="7.14619">
        <ele>872.3</ele>
        <time>2016-06-30T19:14:22.000Z</time>
      </trkpt>
      <trkpt lat="47.98064" lon="7.14617">
        <ele>872</ele>
        <time>2016-06-30T19:14:24.000Z</time>
      </trkpt>
      <trkpt lat="47.98072" lon="7.14612">
        <ele>872</ele>
        <time>2016-06-30T19:14:26.000Z</time>
      </trkpt>
      <trkpt lat="47.98076" lon="7.14609">
        <ele>872.2</ele>
        <time>2016-06-30T19:14:27.000Z</time>
      </trkpt>
      <trkpt lat="47.9808" lon="7.14605">
        <ele>872.5</ele>
        <time>2016-06-30T19:14:28.000Z</time>
      </trkpt>
      <trkpt lat="47.98083" lon="7.146">
        <ele>872.9</ele>
        <time>2016-06-30T19:14:29.000Z</time>
      </trkpt>
      <trkpt lat="47.98086" lon="7.14595">
        <ele>872.7</ele>
        <time>2016-06-30T19:14:30.000Z</time>
      </trkpt>
      <trkpt lat="47.98088" lon="7.14589">
        <ele>873</ele>
        <time>2016-06-30T19:14:31.000Z</time>
      </trkpt>
      <trkpt lat="47.98089" lon="7.14583">
        <ele>873.5</ele>
        <time>2016-06-30T19:14:32.000Z</time>
      </trkpt>
      <trkpt lat="47.98081" lon="7.14447">
        <ele>868.7</ele>
        <time>2016-06-30T19:14:49.000Z</time>
      </trkpt>
      <trkpt lat="47.98085" lon="7.14325">
        <ele>866.9</ele>
        <time>2016-06-30T19:14:58.000Z</time>
      </trkpt>
      <trkpt lat="47.98088" lon="7.14305">
        <ele>868.9</ele>
        <time>2016-06-30T19:15:00.000Z</time>
      </trkpt>
      <trkpt lat="47.98091" lon="7.14293">
        <ele>870.4</ele>
        <time>2016-06-30T19:15:02.000Z</time>
      </trkpt>
      <trkpt lat="47.98093" lon="7.1429">
        <ele>871</ele>
        <time>2016-06-30T19:15:03.000Z</time>
      </trkpt>
      <trkpt lat="47.98095" lon="7.14288">
        <ele>871.5</ele>
        <time>2016-06-30T19:15:04.000Z</time>
      </trkpt>
      <trkpt lat="47.981" lon="7.14289">
        <ele>872</ele>
        <time>2016-06-30T19:15:06.000Z</time>
      </trkpt>
      <trkpt lat="47.98102" lon="7.14292">
        <ele>872.1</ele>
        <time>2016-06-30T19:15:07.000Z</time>
      </trkpt>
      <trkpt lat="47.98131" lon="7.14329">
        <ele>870.1</ele>
        <time>2016-06-30T19:15:20.000Z</time>
      </trkpt>
      <trkpt lat="47.98159" lon="7.14358">
        <ele>865.6</ele>
        <time>2016-06-30T19:15:28.000Z</time>
      </trkpt>
      <trkpt lat="47.98171" lon="7.14368">
        <ele>863.7</ele>
        <time>2016-06-30T19:15:31.000Z</time>
      </trkpt>
      <trkpt lat="47.9818" lon="7.14374">
        <ele>863.7</ele>
        <time>2016-06-30T19:15:33.000Z</time>
      </trkpt>
      <trkpt lat="47.98214" lon="7.14392">
        <ele>865.3</ele>
        <time>2016-06-30T19:15:41.000Z</time>
      </trkpt>
      <trkpt lat="47.98223" lon="7.14395">
        <ele>866</ele>
        <time>2016-06-30T19:15:43.000Z</time>
      </trkpt>
      <trkpt lat="47.98226" lon="7.14396">
        <ele>866.5</ele>
        <time>2016-06-30T19:15:44.000Z</time>
      </trkpt>
      <trkpt lat="47.9824" lon="7.14398">
        <ele>868.7</ele>
        <time>2016-06-30T19:15:48.000Z</time>
      </trkpt>
      <trkpt lat="47.98247" lon="7.14399">
        <ele>869.6</ele>
        <time>2016-06-30T19:15:50.000Z</time>
      </trkpt>
      <trkpt lat="47.98254" lon="7.14401">
        <ele>870.1</ele>
        <time>2016-06-30T19:15:52.000Z</time>
      </trkpt>
      <trkpt lat="47.98327" lon="7.1443">
        <ele>869.7</ele>
        <time>2016-06-30T19:16:18.000Z</time>
      </trkpt>
      <trkpt lat="47.98366" lon="7.14438">
        <ele>874.5</ele>
        <time>2016-06-30T19:16:32.000Z</time>
      </trkpt>
      <trkpt lat="47.98371" lon="7.1444">
        <ele>875.1</ele>
        <time>2016-06-30T19:16:35.000Z</time>
      </trkpt>
      <trkpt lat="47.98375" lon="7.14442">
        <ele>875.4</ele>
        <time>2016-06-30T19:16:37.000Z</time>
      </trkpt>
      <trkpt lat="47.98379" lon="7.14444">
        <ele>875.7</ele>
        <time>2016-06-30T19:16:39.000Z</time>
      </trkpt>
      <trkpt lat="47.98384" lon="7.14448">
        <ele>875.8</ele>
        <time>2016-06-30T19:16:42.000Z</time>
      </trkpt>
      <trkpt lat="47.98389" lon="7.14454">
        <ele>875.6</ele>
        <time>2016-06-30T19:16:45.000Z</time>
      </trkpt>
      <trkpt lat="47.98393" lon="7.1446">
        <ele>875.1</ele>
        <time>2016-06-30T19:16:48.000Z</time>
      </trkpt>
      <trkpt lat="47.98395" lon="7.14465">
        <ele>874.5</ele>
        <time>2016-06-30T19:16:50.000Z</time>
      </trkpt>
      <trkpt lat="47.98396" lon="7.14471">
        <ele>873.6</ele>
        <time>2016-06-30T19:16:52.000Z</time>
      </trkpt>
      <trkpt lat="47.98402" lon="7.14506">
        <ele>868.5</ele>
        <time>2016-06-30T19:17:01.000Z</time>
      </trkpt>
      <trkpt lat="47.98407" lon="7.14522">
        <ele>867.9</ele>
        <time>2016-06-30T19:17:05.000Z</time>
      </trkpt>
      <trkpt lat="47.98454" lon="7.14623">
        <ele>863.9</ele>
        <time>2016-06-30T19:17:21.000Z</time>
      </trkpt>
      <trkpt lat="47.98459" lon="7.14629">
        <ele>863.8</ele>
        <time>2016-06-30T19:17:22.000Z</time>
      </trkpt>
      <trkpt lat="47.98469" lon="7.14641">
        <ele>863.8</ele>
        <time>2016-06-30T19:17:24.000Z</time>
      </trkpt>
      <trkpt lat="47.98496" lon="7.14668">
        <ele>865</ele>
        <time>2016-06-30T19:17:29.000Z</time>
      </trkpt>
      <trkpt lat="47.98508" lon="7.14678">
        <ele>864</ele>
        <time>2016-06-30T19:17:31.000Z</time>
      </trkpt>
      <trkpt lat="47.98521" lon="7.14686">
        <ele>862.6</ele>
        <time>2016-06-30T19:17:33.000Z</time>
      </trkpt>
      <trkpt lat="47.98536" lon="7.14692">
        <ele>861.5</ele>
        <time>2016-06-30T19:17:35.000Z</time>
      </trkpt>
      <trkpt lat="47.98622" lon="7.14717">
        <ele>857.4</ele>
        <time>2016-06-30T19:17:47.000Z</time>
      </trkpt>
      <trkpt lat="47.98645" lon="7.14724">
        <ele>856.5</ele>
        <time>2016-06-30T19:17:51.000Z</time>
      </trkpt>
      <trkpt lat="47.98657" lon="7.14726">
        <ele>856.4</ele>
        <time>2016-06-30T19:17:53.000Z</time>
      </trkpt>
      <trkpt lat="47.98663" lon="7.14726">
        <ele>856.4</ele>
        <time>2016-06-30T19:17:54.000Z</time>
      </trkpt>
      <trkpt lat="47.98674" lon="7.14725">
        <ele>855.5</ele>
        <time>2016-06-30T19:17:56.000Z</time>
      </trkpt>
      <trkpt lat="47.9868" lon="7.14724">
        <ele>854.8</ele>
        <time>2016-06-30T19:17:57.000Z</time>
      </trkpt>
      <trkpt lat="47.98686" lon="7.14722">
        <ele>854.3</ele>
        <time>2016-06-30T19:17:58.000Z</time>
      </trkpt>
      <trkpt lat="47.98691" lon="7.1472">
        <ele>853.9</ele>
        <time>2016-06-30T19:17:59.000Z</time>
      </trkpt>
      <trkpt lat="47.98696" lon="7.14716">
        <ele>853.7</ele>
        <time>2016-06-30T19:18:00.000Z</time>
      </trkpt>
      <trkpt lat="47.98775" lon="7.14645">
        <ele>855.7</ele>
        <time>2016-06-30T19:18:17.000Z</time>
      </trkpt>
      <trkpt lat="47.98785" lon="7.14638">
        <ele>855.7</ele>
        <time>2016-06-30T19:18:19.000Z</time>
      </trkpt>
      <trkpt lat="47.98795" lon="7.14633">
        <ele>855.5</ele>
        <time>2016-06-30T19:18:21.000Z</time>
      </trkpt>
      <trkpt lat="47.98804" lon="7.14629">
        <ele>855.1</ele>
        <time>2016-06-30T19:18:23.000Z</time>
      </trkpt>
      <trkpt lat="47.98825" lon="7.14622">
        <ele>853.9</ele>
        <time>2016-06-30T19:18:28.000Z</time>
      </trkpt>
      <trkpt lat="47.98836" lon="7.14618">
        <ele>854</ele>
        <time>2016-06-30T19:18:31.000Z</time>
      </trkpt>
      <trkpt lat="47.98854" lon="7.14609">
        <ele>857.6</ele>
        <time>2016-06-30T19:18:36.000Z</time>
      </trkpt>
      <trkpt lat="47.98861" lon="7.14607">
        <ele>858.7</ele>
        <time>2016-06-30T19:18:38.000Z</time>
      </trkpt>
      <trkpt lat="47.98865" lon="7.14606">
        <ele>859</ele>
        <time>2016-06-30T19:18:39.000Z</time>
      </trkpt>
      <trkpt lat="47.98868" lon="7.14607">
        <ele>859.2</ele>
        <time>2016-06-30T19:18:40.000Z</time>
      </trkpt>
      <trkpt lat="47.98872" lon="7.14607">
        <ele>859.3</ele>
        <time>2016-06-30T19:18:41.000Z</time>
      </trkpt>
      <trkpt lat="47.98879" lon="7.14609">
        <ele>859.1</ele>
        <time>2016-06-30T19:18:43.000Z</time>
      </trkpt>
      <trkpt lat="47.98887" lon="7.14612">
        <ele>858.8</ele>
        <time>2016-06-30T19:18:45.000Z</time>
      </trkpt>
      <trkpt lat="47.98893" lon="7.14616">
        <ele>858.2</ele>
        <time>2016-06-30T19:18:47.000Z</time>
      </trkpt>
      <trkpt lat="47.99022" lon="7.14732">
        <ele>849.2</ele>
        <time>2016-06-30T19:19:23.000Z</time>
      </trkpt>
      <trkpt lat="47.99026" lon="7.14734">
        <ele>849</ele>
        <time>2016-06-30T19:19:24.000Z</time>
      </trkpt>
      <trkpt lat="47.99031" lon="7.14736">
        <ele>849</ele>
        <time>2016-06-30T19:19:25.000Z</time>
      </trkpt>
      <trkpt lat="47.99035" lon="7.14737">
        <ele>849</ele>
        <time>2016-06-30T19:19:26.000Z</time>
      </trkpt>
      <trkpt lat="47.99039" lon="7.14738">
        <ele>849.1</ele>
        <time>2016-06-30T19:19:27.000Z</time>
      </trkpt>
      <trkpt lat="47.99043" lon="7.14737">
        <ele>849.3</ele>
        <time>2016-06-30T19:19:28.000Z</time>
      </trkpt>
      <trkpt lat="47.99047" lon="7.14736">
        <ele>849.6</ele>
        <time>2016-06-30T19:19:29.000Z</time>
      </trkpt>
      <trkpt lat="47.99051" lon="7.14735">
        <ele>849.9</ele>
        <time>2016-06-30T19:19:30.000Z</time>
      </trkpt>
      <trkpt lat="47.99055" lon="7.14732">
        <ele>850.3</ele>
        <time>2016-06-30T19:19:31.000Z</time>
      </trkpt>
      <trkpt lat="47.99058" lon="7.1473">
        <ele>850.6</ele>
        <time>2016-06-30T19:19:32.000Z</time>
      </trkpt>
      <trkpt lat="47.99061" lon="7.14727">
        <ele>851</ele>
        <time>2016-06-30T19:19:33.000Z</time>
      </trkpt>
      <trkpt lat="47.99065" lon="7.1472">
        <ele>851.7</ele>
        <time>2016-06-30T19:19:35.000Z</time>
      </trkpt>
      <trkpt lat="47.99068" lon="7.14713">
        <ele>852.4</ele>
        <time>2016-06-30T19:19:37.000Z</time>
      </trkpt>
      <trkpt lat="47.9907" lon="7.14706">
        <ele>852.9</ele>
        <time>2016-06-30T19:19:39.000Z</time>
      </trkpt>
      <trkpt lat="47.9907" lon="7.14703">
        <ele>853.2</ele>
        <time>2016-06-30T19:19:40.000Z</time>
      </trkpt>
      <trkpt lat="47.9907" lon="7.14698">
        <ele>853.6</ele>
        <time>2016-06-30T19:19:42.000Z</time>
      </trkpt>
      <trkpt lat="47.99069" lon="7.14696">
        <ele>853.8</ele>
        <time>2016-06-30T19:19:43.000Z</time>
      </trkpt>
      <trkpt lat="47.99068" lon="7.14689">
        <ele>854.3</ele>
        <time>2016-06-30T19:19:46.000Z</time>
      </trkpt>
      <trkpt lat="47.9906" lon="7.14662">
        <ele>857</ele>
        <time>2016-06-30T19:19:59.000Z</time>
      </trkpt>
      <trkpt lat="47.9906" lon="7.14658">
        <ele>857.7</ele>
        <time>2016-06-30T19:20:01.000Z</time>
      </trkpt>
      <trkpt lat="47.99059" lon="7.1461">
        <ele>864.9</ele>
        <time>2016-06-30T19:20:22.000Z</time>
      </trkpt>
      <trkpt lat="47.99059" lon="7.14597">
        <ele>866.9</ele>
        <time>2016-06-30T19:20:28.000Z</time>
      </trkpt>
      <trkpt lat="47.99049" lon="7.14531">
        <ele>874.4</ele>
        <time>2016-06-30T19:20:59.000Z</time>
      </trkpt>
      <trkpt lat="47.99048" lon="7.14518">
        <ele>875.8</ele>
        <time>2016-06-30T19:21:04.000Z</time>
      </trkpt>
      <trkpt lat="47.99013" lon="7.14357">
        <ele>888.4</ele>
        <time>2016-06-30T19:21:54.000Z</time>
      </trkpt>
      <trkpt lat="47.99011" lon="7.14343">
        <ele>888.1</ele>
        <time>2016-06-30T19:21:58.000Z</time>
      </trkpt>
      <trkpt lat="47.9901" lon="7.14339">
        <ele>888</ele>
        <time>2016-06-30T19:21:59.000Z</time>
      </trkpt>
      <trkpt lat="47.9901" lon="7.14324">
        <ele>886.6</ele>
        <time>2016-06-30T19:22:03.000Z</time>
      </trkpt>
      <trkpt lat="47.99017" lon="7.14281">
        <ele>879.2</ele>
        <time>2016-06-30T19:22:12.000Z</time>
      </trkpt>
      <trkpt lat="47.99017" lon="7.14184">
        <ele>873</ele>
        <time>2016-06-30T19:22:32.000Z</time>
      </trkpt>
      <trkpt lat="47.99017" lon="7.1418">
        <ele>872.9</ele>
        <time>2016-06-30T19:22:36.000Z</time>
      </trkpt>
      <trkpt lat="47.99016" lon="7.14178">
        <ele>873.1</ele>
        <time>2016-06-30T19:22:42.000Z</time>
      </trkpt>
      <trkpt lat="47.99016" lon="7.14176">
        <ele>873.1</ele>
        <time>2016-06-30T19:22:44.000Z</time>
      </trkpt>
      <trkpt lat="47.99015" lon="7.14175">
        <ele>873.2</ele>
        <time>2016-06-30T19:22:45.000Z</time>
      </trkpt>
      <trkpt lat="47.99016" lon="7.14153">
        <ele>872.6</ele>
        <time>2016-06-30T19:22:53.000Z</time>
      </trkpt>
      <trkpt lat="47.99017" lon="7.1414">
        <ele>872.6</ele>
        <time>2016-06-30T19:22:56.000Z</time>
      </trkpt>
      <trkpt lat="47.9902" lon="7.14116">
        <ele>872</ele>
        <time>2016-06-30T19:23:04.000Z</time>
      </trkpt>
      <trkpt lat="47.9902" lon="7.14115">
        <ele>872.1</ele>
        <time>2016-06-30T19:23:38.000Z</time>
      </trkpt>
      <trkpt lat="47.9902" lon="7.14115">
        <ele>872.1</ele>
        <time>2016-06-30T19:23:43.000Z</time>
      </trkpt>
      <trkpt lat="47.9902" lon="7.14115">
        <ele>872.2</ele>
        <time>2016-06-30T19:23:46.000Z</time>
      </trkpt>
      <trkpt lat="47.9902" lon="7.14115">
        <ele>872.2</ele>
        <time>2016-06-30T19:23:48.000Z</time>
      </trkpt>
      <trkpt lat="47.9902" lon="7.14115">
        <ele>872.2</ele>
        <time>2016-06-30T19:23:49.000Z</time>
      </trkpt>
      <trkpt lat="47.9902" lon="7.14114">
        <ele>872.3</ele>
        <time>2016-06-30T19:23:52.000Z</time>
      </trkpt>
      <trkpt lat="47.9902" lon="7.14114">
        <ele>872.3</ele>
        <time>2016-06-30T19:23:53.000Z</time>
      </trkpt>
      <trkpt lat="47.99019" lon="7.14113">
        <ele>872.3</ele>
        <time>2016-06-30T19:23:54.000Z</time>
      </trkpt>
      <trkpt lat="47.99019" lon="7.14113">
        <ele>872.4</ele>
        <time>2016-06-30T19:23:55.000Z</time>
      </trkpt>
      <trkpt lat="47.99019" lon="7.14113">
        <ele>872.5</ele>
        <time>2016-06-30T19:23:56.000Z</time>
      </trkpt>
      <trkpt lat="47.99018" lon="7.14113">
        <ele>872.6</ele>
        <time>2016-06-30T19:23:57.000Z</time>
      </trkpt>
      <trkpt lat="47.99018" lon="7.14113">
        <ele>872.8</ele>
        <time>2016-06-30T19:23:58.000Z</time>
      </trkpt>
      <trkpt lat="47.99013" lon="7.14109">
        <ele>874.1</ele>
        <time>2016-06-30T19:24:03.000Z</time>
      </trkpt>
      <trkpt lat="47.99013" lon="7.14109">
        <ele>874.2</ele>
        <time>2016-06-30T19:24:04.000Z</time>
      </trkpt>
      <trkpt lat="47.99013" lon="7.14109">
        <ele>874.3</ele>
        <time>2016-06-30T19:24:13.000Z</time>
      </trkpt>
      <trkpt lat="47.99012" lon="7.14109">
        <ele>874.3</ele>
        <time>2016-06-30T19:24:14.000Z</time>
      </trkpt>
      <trkpt lat="47.99012" lon="7.14108">
        <ele>874.5</ele>
        <time>2016-06-30T19:24:17.000Z</time>
      </trkpt>
      <trkpt lat="47.99012" lon="7.14108">
        <ele>874.6</ele>
        <time>2016-06-30T19:24:18.000Z</time>
      </trkpt>
      <trkpt lat="47.99011" lon="7.14107">
        <ele>874.7</ele>
        <time>2016-06-30T19:24:20.000Z</time>
      </trkpt>
      <trkpt lat="47.99011" lon="7.14106">
        <ele>874.8</ele>
        <time>2016-06-30T19:24:21.000Z</time>
      </trkpt>
      <trkpt lat="47.9901" lon="7.14106">
        <ele>874.9</ele>
        <time>2016-06-30T19:24:22.000Z</time>
      </trkpt>
      <trkpt lat="47.99009" lon="7.14104">
        <ele>875.3</ele>
        <time>2016-06-30T19:24:26.000Z</time>
      </trkpt>
      <trkpt lat="47.99007" lon="7.141">
        <ele>875.6</ele>
        <time>2016-06-30T19:24:28.000Z</time>
      </trkpt>
      <trkpt lat="47.98999" lon="7.14055">
        <ele>879.1</ele>
        <time>2016-06-30T19:25:03.000Z</time>
      </trkpt>
      <trkpt lat="47.98998" lon="7.14052">
        <ele>879.6</ele>
        <time>2016-06-30T19:25:07.000Z</time>
      </trkpt>
      <trkpt lat="47.98997" lon="7.14046">
        <ele>880.5</ele>
        <time>2016-06-30T19:25:13.000Z</time>
      </trkpt>
      <trkpt lat="47.98996" lon="7.14043">
        <ele>880.9</ele>
        <time>2016-06-30T19:25:17.000Z</time>
      </trkpt>
      <trkpt lat="47.98996" lon="7.14043">
        <ele>881</ele>
        <time>2016-06-30T19:25:18.000Z</time>
      </trkpt>
      <trkpt lat="47.98995" lon="7.1404">
        <ele>881.6</ele>
        <time>2016-06-30T19:25:24.000Z</time>
      </trkpt>
      <trkpt lat="47.98994" lon="7.14038">
        <ele>881.8</ele>
        <time>2016-06-30T19:25:26.000Z</time>
      </trkpt>
      <trkpt lat="47.98995" lon="7.14028">
        <ele>882.1</ele>
        <time>2016-06-30T19:25:32.000Z</time>
      </trkpt>
      <trkpt lat="47.99002" lon="7.13986">
        <ele>884.7</ele>
        <time>2016-06-30T19:25:58.000Z</time>
      </trkpt>
      <trkpt lat="47.99003" lon="7.13982">
        <ele>885.3</ele>
        <time>2016-06-30T19:26:00.000Z</time>
      </trkpt>
      <trkpt lat="47.99002" lon="7.13976">
        <ele>886.3</ele>
        <time>2016-06-30T19:26:05.000Z</time>
      </trkpt>
      <trkpt lat="47.99002" lon="7.13975">
        <ele>886.4</ele>
        <time>2016-06-30T19:26:06.000Z</time>
      </trkpt>
      <trkpt lat="47.99001" lon="7.13965">
        <ele>888.1</ele>
        <time>2016-06-30T19:26:13.000Z</time>
      </trkpt>
      <trkpt lat="47.99002" lon="7.13954">
        <ele>890</ele>
        <time>2016-06-30T19:26:21.000Z</time>
      </trkpt>
      <trkpt lat="47.99002" lon="7.13952">
        <ele>890.5</ele>
        <time>2016-06-30T19:26:22.000Z</time>
      </trkpt>
      <trkpt lat="47.99003" lon="7.13951">
        <ele>890.9</ele>
        <time>2016-06-30T19:26:23.000Z</time>
      </trkpt>
      <trkpt lat="47.99004" lon="7.1395">
        <ele>891.2</ele>
        <time>2016-06-30T19:26:24.000Z</time>
      </trkpt>
      <trkpt lat="47.99005" lon="7.13949">
        <ele>891.6</ele>
        <time>2016-06-30T19:26:25.000Z</time>
      </trkpt>
      <trkpt lat="47.99006" lon="7.13948">
        <ele>891.9</ele>
        <time>2016-06-30T19:26:26.000Z</time>
      </trkpt>
      <trkpt lat="47.99009" lon="7.13947">
        <ele>892.5</ele>
        <time>2016-06-30T19:26:28.000Z</time>
      </trkpt>
      <trkpt lat="47.99012" lon="7.13947">
        <ele>893.2</ele>
        <time>2016-06-30T19:26:31.000Z</time>
      </trkpt>
      <trkpt lat="47.99014" lon="7.13946">
        <ele>893.9</ele>
        <time>2016-06-30T19:26:34.000Z</time>
      </trkpt>
      <trkpt lat="47.99015" lon="7.13946">
        <ele>894</ele>
        <time>2016-06-30T19:26:35.000Z</time>
      </trkpt>
      <trkpt lat="47.99015" lon="7.13946">
        <ele>894.1</ele>
        <time>2016-06-30T19:26:36.000Z</time>
      </trkpt>
      <trkpt lat="47.99016" lon="7.13945">
        <ele>894.2</ele>
        <time>2016-06-30T19:26:37.000Z</time>
      </trkpt>
      <trkpt lat="47.99016" lon="7.13945">
        <ele>894.3</ele>
        <time>2016-06-30T19:26:38.000Z</time>
      </trkpt>
      <trkpt lat="47.99016" lon="7.13945">
        <ele>894.4</ele>
        <time>2016-06-30T19:26:39.000Z</time>
      </trkpt>
      <trkpt lat="47.99016" lon="7.13944">
        <ele>894.6</ele>
        <time>2016-06-30T19:26:42.000Z</time>
      </trkpt>
      <trkpt lat="47.99016" lon="7.13944">
        <ele>894.6</ele>
        <time>2016-06-30T19:26:43.000Z</time>
      </trkpt>
      <trkpt lat="47.99016" lon="7.13944">
        <ele>894.7</ele>
        <time>2016-06-30T19:27:02.000Z</time>
      </trkpt>
      <trkpt lat="47.99017" lon="7.13944">
        <ele>894.8</ele>
        <time>2016-06-30T19:27:11.000Z</time>
      </trkpt>
      <trkpt lat="47.99017" lon="7.13944">
        <ele>894.9</ele>
        <time>2016-06-30T19:27:21.000Z</time>
      </trkpt>
      <trkpt lat="47.99018" lon="7.13944">
        <ele>895</ele>
        <time>2016-06-30T19:27:23.000Z</time>
      </trkpt>
      <trkpt lat="47.99018" lon="7.13944">
        <ele>895.1</ele>
        <time>2016-06-30T19:27:25.000Z</time>
      </trkpt>
      <trkpt lat="47.99019" lon="7.13944">
        <ele>895.2</ele>
        <time>2016-06-30T19:27:26.000Z</time>
      </trkpt>
      <trkpt lat="47.9902" lon="7.13944">
        <ele>895.4</ele>
        <time>2016-06-30T19:27:27.000Z</time>
      </trkpt>
      <trkpt lat="47.99021" lon="7.13945">
        <ele>895.4</ele>
        <time>2016-06-30T19:27:28.000Z</time>
      </trkpt>
      <trkpt lat="47.99022" lon="7.13946">
        <ele>895.4</ele>
        <time>2016-06-30T19:27:29.000Z</time>
      </trkpt>
      <trkpt lat="47.99023" lon="7.13947">
        <ele>895.4</ele>
        <time>2016-06-30T19:27:30.000Z</time>
      </trkpt>
      <trkpt lat="47.99025" lon="7.13951">
        <ele>895</ele>
        <time>2016-06-30T19:27:32.000Z</time>
      </trkpt>
      <trkpt lat="47.99031" lon="7.13964">
        <ele>893</ele>
        <time>2016-06-30T19:27:38.000Z</time>
      </trkpt>
      <trkpt lat="47.99041" lon="7.13982">
        <ele>890.4</ele>
        <time>2016-06-30T19:27:48.000Z</time>
      </trkpt>
      <trkpt lat="47.99044" lon="7.13986">
        <ele>889.9</ele>
        <time>2016-06-30T19:27:51.000Z</time>
      </trkpt>
      <trkpt lat="47.99046" lon="7.13987">
        <ele>889.6</ele>
        <time>2016-06-30T19:27:54.000Z</time>
      </trkpt>
      <trkpt lat="47.99046" lon="7.13988">
        <ele>889.6</ele>
        <time>2016-06-30T19:27:59.000Z</time>
      </trkpt>
      <trkpt lat="47.99046" lon="7.13988">
        <ele>889.5</ele>
        <time>2016-06-30T19:28:01.000Z</time>
      </trkpt>
      <trkpt lat="47.99046" lon="7.13988">
        <ele>889.5</ele>
        <time>2016-06-30T19:28:02.000Z</time>
      </trkpt>
      <trkpt lat="47.99047" lon="7.13989">
        <ele>889.4</ele>
        <time>2016-06-30T19:28:04.000Z</time>
      </trkpt>
      <trkpt lat="47.99047" lon="7.13989">
        <ele>889.4</ele>
        <time>2016-06-30T19:28:06.000Z</time>
      </trkpt>
      <trkpt lat="47.99047" lon="7.13989">
        <ele>889.3</ele>
        <time>2016-06-30T19:28:08.000Z</time>
      </trkpt>
      <trkpt lat="47.99047" lon="7.13989">
        <ele>889.3</ele>
        <time>2016-06-30T19:28:09.000Z</time>
      </trkpt>
      <trkpt lat="47.99048" lon="7.1399">
        <ele>889.2</ele>
        <time>2016-06-30T19:28:10.000Z</time>
      </trkpt>
      <trkpt lat="47.99048" lon="7.13991">
        <ele>889</ele>
        <time>2016-06-30T19:28:13.000Z</time>
      </trkpt>
      <trkpt lat="47.99049" lon="7.13993">
        <ele>888.5</ele>
        <time>2016-06-30T19:28:18.000Z</time>
      </trkpt>
      <trkpt lat="47.99049" lon="7.13993">
        <ele>888.5</ele>
        <time>2016-06-30T19:28:20.000Z</time>
      </trkpt>
      <trkpt lat="47.99052" lon="7.13999">
        <ele>887.3</ele>
        <time>2016-06-30T19:29:25.000Z</time>
      </trkpt>
      <trkpt lat="47.99053" lon="7.14">
        <ele>887</ele>
        <time>2016-06-30T19:29:26.000Z</time>
      </trkpt>
      <trkpt lat="47.99054" lon="7.14001">
        <ele>886.8</ele>
        <time>2016-06-30T19:29:27.000Z</time>
      </trkpt>
      <trkpt lat="47.99063" lon="7.14008">
        <ele>885.6</ele>
        <time>2016-06-30T19:29:32.000Z</time>
      </trkpt>
      <trkpt lat="47.99078" lon="7.14026">
        <ele>880.6</ele>
        <time>2016-06-30T19:29:38.000Z</time>
      </trkpt>
      <trkpt lat="47.99081" lon="7.14028">
        <ele>879.8</ele>
        <time>2016-06-30T19:29:39.000Z</time>
      </trkpt>
      <trkpt lat="47.99094" lon="7.14036">
        <ele>879.4</ele>
        <time>2016-06-30T19:29:45.000Z</time>
      </trkpt>
      <trkpt lat="47.99124" lon="7.14072">
        <ele>873.2</ele>
        <time>2016-06-30T19:29:59.000Z</time>
      </trkpt>
      <trkpt lat="47.99134" lon="7.14081">
        <ele>871.8</ele>
        <time>2016-06-30T19:30:03.000Z</time>
      </trkpt>
      <trkpt lat="47.99157" lon="7.14107">
        <ele>866.6</ele>
        <time>2016-06-30T19:30:11.000Z</time>
      </trkpt>
      <trkpt lat="47.99161" lon="7.14111">
        <ele>865.8</ele>
        <time>2016-06-30T19:30:13.000Z</time>
      </trkpt>
      <trkpt lat="47.99186" lon="7.14122">
        <ele>865.4</ele>
        <time>2016-06-30T19:30:23.000Z</time>
      </trkpt>
      <trkpt lat="47.99192" lon="7.14125">
        <ele>865.1</ele>
        <time>2016-06-30T19:30:25.000Z</time>
      </trkpt>
      <trkpt lat="47.99205" lon="7.14135">
        <ele>863.8</ele>
        <time>2016-06-30T19:30:29.000Z</time>
      </trkpt>
      <trkpt lat="47.99214" lon="7.14144">
        <ele>862</ele>
        <time>2016-06-30T19:30:32.000Z</time>
      </trkpt>
      <trkpt lat="47.99226" lon="7.14161">
        <ele>857.9</ele>
        <time>2016-06-30T19:30:37.000Z</time>
      </trkpt>
      <trkpt lat="47.99228" lon="7.14164">
        <ele>857.4</ele>
        <time>2016-06-30T19:30:38.000Z</time>
      </trkpt>
      <trkpt lat="47.99231" lon="7.14166">
        <ele>857.1</ele>
        <time>2016-06-30T19:30:39.000Z</time>
      </trkpt>
      <trkpt lat="47.99234" lon="7.14168">
        <ele>857.1</ele>
        <time>2016-06-30T19:30:40.000Z</time>
      </trkpt>
      <trkpt lat="47.9924" lon="7.14171">
        <ele>857.5</ele>
        <time>2016-06-30T19:30:42.000Z</time>
      </trkpt>
      <trkpt lat="47.99242" lon="7.14171">
        <ele>857.8</ele>
        <time>2016-06-30T19:30:43.000Z</time>
      </trkpt>
      <trkpt lat="47.99243" lon="7.14171">
        <ele>858.2</ele>
        <time>2016-06-30T19:30:44.000Z</time>
      </trkpt>
      <trkpt lat="47.99244" lon="7.1417">
        <ele>858.6</ele>
        <time>2016-06-30T19:30:45.000Z</time>
      </trkpt>
      <trkpt lat="47.99245" lon="7.1417">
        <ele>859</ele>
        <time>2016-06-30T19:30:46.000Z</time>
      </trkpt>
      <trkpt lat="47.99247" lon="7.1417">
        <ele>859.4</ele>
        <time>2016-06-30T19:30:47.000Z</time>
      </trkpt>
      <trkpt lat="47.99249" lon="7.1417">
        <ele>859.8</ele>
        <time>2016-06-30T19:30:49.000Z</time>
      </trkpt>
      <trkpt lat="47.99249" lon="7.1417">
        <ele>859.9</ele>
        <time>2016-06-30T19:30:50.000Z</time>
      </trkpt>
      <trkpt lat="47.9925" lon="7.14169">
        <ele>860.1</ele>
        <time>2016-06-30T19:30:51.000Z</time>
      </trkpt>
      <trkpt lat="47.99255" lon="7.1417">
        <ele>860.8</ele>
        <time>2016-06-30T19:30:56.000Z</time>
      </trkpt>
      <trkpt lat="47.99256" lon="7.1417">
        <ele>860.9</ele>
        <time>2016-06-30T19:31:02.000Z</time>
      </trkpt>
      <trkpt lat="47.99261" lon="7.14172">
        <ele>861</ele>
        <time>2016-06-30T19:31:06.000Z</time>
      </trkpt>
      <trkpt lat="47.99262" lon="7.14173">
        <ele>861.1</ele>
        <time>2016-06-30T19:31:07.000Z</time>
      </trkpt>
      <trkpt lat="47.99266" lon="7.14174">
        <ele>861.5</ele>
        <time>2016-06-30T19:31:09.000Z</time>
      </trkpt>
      <trkpt lat="47.99269" lon="7.14174">
        <ele>861.9</ele>
        <time>2016-06-30T19:31:11.000Z</time>
      </trkpt>
      <trkpt lat="47.99272" lon="7.14174">
        <ele>862.5</ele>
        <time>2016-06-30T19:31:14.000Z</time>
      </trkpt>
      <trkpt lat="47.99277" lon="7.14174">
        <ele>863.2</ele>
        <time>2016-06-30T19:31:18.000Z</time>
      </trkpt>
      <trkpt lat="47.99288" lon="7.14178">
        <ele>864.3</ele>
        <time>2016-06-30T19:31:27.000Z</time>
      </trkpt>
      <trkpt lat="47.99289" lon="7.14178">
        <ele>864.5</ele>
        <time>2016-06-30T19:31:28.000Z</time>
      </trkpt>
      <trkpt lat="47.99299" lon="7.14176">
        <ele>866.4</ele>
        <time>2016-06-30T19:31:37.000Z</time>
      </trkpt>
      <trkpt lat="47.99301" lon="7.14177">
        <ele>866.7</ele>
        <time>2016-06-30T19:31:39.000Z</time>
      </trkpt>
      <trkpt lat="47.99302" lon="7.14177">
        <ele>866.9</ele>
        <time>2016-06-30T19:31:41.000Z</time>
      </trkpt>
      <trkpt lat="47.99306" lon="7.14179">
        <ele>867.1</ele>
        <time>2016-06-30T19:31:45.000Z</time>
      </trkpt>
      <trkpt lat="47.99306" lon="7.1418">
        <ele>867.1</ele>
        <time>2016-06-30T19:31:46.000Z</time>
      </trkpt>
      <trkpt lat="47.99307" lon="7.1418">
        <ele>867.1</ele>
        <time>2016-06-30T19:31:47.000Z</time>
      </trkpt>
      <trkpt lat="47.99311" lon="7.14182">
        <ele>867.4</ele>
        <time>2016-06-30T19:31:52.000Z</time>
      </trkpt>
      <trkpt lat="47.99333" lon="7.14193">
        <ele>869.7</ele>
        <time>2016-06-30T19:32:15.000Z</time>
      </trkpt>
      <trkpt lat="47.99335" lon="7.14194">
        <ele>869.6</ele>
        <time>2016-06-30T19:32:18.000Z</time>
      </trkpt>
      <trkpt lat="47.99338" lon="7.14194">
        <ele>869.2</ele>
        <time>2016-06-30T19:32:21.000Z</time>
      </trkpt>
      <trkpt lat="47.9934" lon="7.14194">
        <ele>869.1</ele>
        <time>2016-06-30T19:32:23.000Z</time>
      </trkpt>
      <trkpt lat="47.99341" lon="7.14194">
        <ele>869</ele>
        <time>2016-06-30T19:32:24.000Z</time>
      </trkpt>
      <trkpt lat="47.99343" lon="7.14193">
        <ele>868.8</ele>
        <time>2016-06-30T19:32:27.000Z</time>
      </trkpt>
      <trkpt lat="47.99344" lon="7.14193">
        <ele>868.8</ele>
        <time>2016-06-30T19:32:28.000Z</time>
      </trkpt>
      <trkpt lat="47.99345" lon="7.14192">
        <ele>868.9</ele>
        <time>2016-06-30T19:32:29.000Z</time>
      </trkpt>
      <trkpt lat="47.99345" lon="7.14191">
        <ele>869</ele>
        <time>2016-06-30T19:32:30.000Z</time>
      </trkpt>
      <trkpt lat="47.99349" lon="7.14172">
        <ele>870.6</ele>
        <time>2016-06-30T19:32:43.000Z</time>
      </trkpt>
      <trkpt lat="47.9935" lon="7.14171">
        <ele>870.6</ele>
        <time>2016-06-30T19:32:45.000Z</time>
      </trkpt>
      <trkpt lat="47.9935" lon="7.14169">
        <ele>870.7</ele>
        <time>2016-06-30T19:32:48.000Z</time>
      </trkpt>
      <trkpt lat="47.9935" lon="7.14168">
        <ele>870.9</ele>
        <time>2016-06-30T19:32:49.000Z</time>
      </trkpt>
      <trkpt lat="47.99349" lon="7.14166">
        <ele>871.1</ele>
        <time>2016-06-30T19:32:50.000Z</time>
      </trkpt>
      <trkpt lat="47.99347" lon="7.14139">
        <ele>872.7</ele>
        <time>2016-06-30T19:33:01.000Z</time>
      </trkpt>
      <trkpt lat="47.99341" lon="7.14109">
        <ele>875.9</ele>
        <time>2016-06-30T19:33:09.000Z</time>
      </trkpt>
      <trkpt lat="47.99339" lon="7.14086">
        <ele>877.8</ele>
        <time>2016-06-30T19:33:15.000Z</time>
      </trkpt>
      <trkpt lat="47.99338" lon="7.1408">
        <ele>878.2</ele>
        <time>2016-06-30T19:33:17.000Z</time>
      </trkpt>
      <trkpt lat="47.99336" lon="7.14007">
        <ele>873.3</ele>
        <time>2016-06-30T19:33:33.000Z</time>
      </trkpt>
      <trkpt lat="47.99334" lon="7.13993">
        <ele>873</ele>
        <time>2016-06-30T19:33:35.000Z</time>
      </trkpt>
      <trkpt lat="47.99315" lon="7.13923">
        <ele>872.7</ele>
        <time>2016-06-30T19:33:54.000Z</time>
      </trkpt>
      <trkpt lat="47.99315" lon="7.13922">
        <ele>872.7</ele>
        <time>2016-06-30T19:33:55.000Z</time>
      </trkpt>
      <trkpt lat="47.99315" lon="7.13922">
        <ele>872.7</ele>
        <time>2016-06-30T19:33:56.000Z</time>
      </trkpt>
      <trkpt lat="47.99314" lon="7.13922">
        <ele>872.8</ele>
        <time>2016-06-30T19:33:57.000Z</time>
      </trkpt>
      <trkpt lat="47.99314" lon="7.13921">
        <ele>872.8</ele>
        <time>2016-06-30T19:33:59.000Z</time>
      </trkpt>
      <trkpt lat="47.99314" lon="7.13921">
        <ele>872.8</ele>
        <time>2016-06-30T19:34:18.000Z</time>
      </trkpt>
      <trkpt lat="47.99314" lon="7.13921">
        <ele>872.8</ele>
        <time>2016-06-30T19:34:24.000Z</time>
      </trkpt>
      <trkpt lat="47.99314" lon="7.1392">
        <ele>872.9</ele>
        <time>2016-06-30T19:34:29.000Z</time>
      </trkpt>
      <trkpt lat="47.99312" lon="7.13916">
        <ele>872.9</ele>
        <time>2016-06-30T19:34:33.000Z</time>
      </trkpt>
      <trkpt lat="47.99312" lon="7.13915">
        <ele>872.9</ele>
        <time>2016-06-30T19:34:34.000Z</time>
      </trkpt>
      <trkpt lat="47.99312" lon="7.13915">
        <ele>872.9</ele>
        <time>2016-06-30T19:34:36.000Z</time>
      </trkpt>
      <trkpt lat="47.99312" lon="7.13914">
        <ele>872.9</ele>
        <time>2016-06-30T19:34:38.000Z</time>
      </trkpt>
      <trkpt lat="47.99303" lon="7.13899">
        <ele>874.1</ele>
        <time>2016-06-30T19:34:49.000Z</time>
      </trkpt>
      <trkpt lat="47.993" lon="7.13893">
        <ele>874</ele>
        <time>2016-06-30T19:34:51.000Z</time>
      </trkpt>
      <trkpt lat="47.99289" lon="7.13842">
        <ele>869.2</ele>
        <time>2016-06-30T19:35:05.000Z</time>
      </trkpt>
      <trkpt lat="47.99288" lon="7.13839">
        <ele>868.8</ele>
        <time>2016-06-30T19:35:06.000Z</time>
      </trkpt>
      <trkpt lat="47.99288" lon="7.13803">
        <ele>865.4</ele>
        <time>2016-06-30T19:35:17.000Z</time>
      </trkpt>
      <trkpt lat="47.99284" lon="7.13784">
        <ele>865.5</ele>
        <time>2016-06-30T19:35:22.000Z</time>
      </trkpt>
      <trkpt lat="47.99281" lon="7.13761">
        <ele>864.6</ele>
        <time>2016-06-30T19:35:26.000Z</time>
      </trkpt>
      <trkpt lat="47.9928" lon="7.13723">
        <ele>866</ele>
        <time>2016-06-30T19:35:33.000Z</time>
      </trkpt>
      <trkpt lat="47.99281" lon="7.13721">
        <ele>865.8</ele>
        <time>2016-06-30T19:35:34.000Z</time>
      </trkpt>
      <trkpt lat="47.99284" lon="7.13721">
        <ele>865.1</ele>
        <time>2016-06-30T19:35:35.000Z</time>
      </trkpt>
      <trkpt lat="47.99287" lon="7.13724">
        <ele>864</ele>
        <time>2016-06-30T19:35:36.000Z</time>
      </trkpt>
      <trkpt lat="47.9929" lon="7.13728">
        <ele>862.8</ele>
        <time>2016-06-30T19:35:37.000Z</time>
      </trkpt>
      <trkpt lat="47.99297" lon="7.13744">
        <ele>859</ele>
        <time>2016-06-30T19:35:40.000Z</time>
      </trkpt>
      <trkpt lat="47.99321" lon="7.13783">
        <ele>852.5</ele>
        <time>2016-06-30T19:35:48.000Z</time>
      </trkpt>
      <trkpt lat="47.99322" lon="7.13784">
        <ele>852.2</ele>
        <time>2016-06-30T19:35:49.000Z</time>
      </trkpt>
      <trkpt lat="47.99322" lon="7.13784">
        <ele>851.9</ele>
        <time>2016-06-30T19:35:50.000Z</time>
      </trkpt>
      <trkpt lat="47.99323" lon="7.13784">
        <ele>851.5</ele>
        <time>2016-06-30T19:35:51.000Z</time>
      </trkpt>
      <trkpt lat="47.99324" lon="7.13782">
        <ele>851</ele>
        <time>2016-06-30T19:35:52.000Z</time>
      </trkpt>
      <trkpt lat="47.99344" lon="7.13738">
        <ele>847.2</ele>
        <time>2016-06-30T19:36:04.000Z</time>
      </trkpt>
      <trkpt lat="47.99345" lon="7.13736">
        <ele>847.6</ele>
        <time>2016-06-30T19:36:05.000Z</time>
      </trkpt>
      <trkpt lat="47.99347" lon="7.13734">
        <ele>847.7</ele>
        <time>2016-06-30T19:36:06.000Z</time>
      </trkpt>
      <trkpt lat="47.9935" lon="7.13733">
        <ele>847.8</ele>
        <time>2016-06-30T19:36:07.000Z</time>
      </trkpt>
      <trkpt lat="47.99353" lon="7.13732">
        <ele>847.6</ele>
        <time>2016-06-30T19:36:08.000Z</time>
      </trkpt>
      <trkpt lat="47.99378" lon="7.13736">
        <ele>844.1</ele>
        <time>2016-06-30T19:36:15.000Z</time>
      </trkpt>
      <trkpt lat="47.99389" lon="7.13736">
        <ele>843.1</ele>
        <time>2016-06-30T19:36:18.000Z</time>
      </trkpt>
      <trkpt lat="47.99414" lon="7.13731">
        <ele>841.9</ele>
        <time>2016-06-30T19:36:27.000Z</time>
      </trkpt>
      <trkpt lat="47.99419" lon="7.13731">
        <ele>841.9</ele>
        <time>2016-06-30T19:36:29.000Z</time>
      </trkpt>
      <trkpt lat="47.99422" lon="7.13732">
        <ele>842</ele>
        <time>2016-06-30T19:36:31.000Z</time>
      </trkpt>
      <trkpt lat="47.99424" lon="7.13732">
        <ele>842</ele>
        <time>2016-06-30T19:36:32.000Z</time>
      </trkpt>
      <trkpt lat="47.99426" lon="7.13733">
        <ele>841.9</ele>
        <time>2016-06-30T19:36:33.000Z</time>
      </trkpt>
      <trkpt lat="47.99431" lon="7.13736">
        <ele>841.5</ele>
        <time>2016-06-30T19:36:36.000Z</time>
      </trkpt>
      <trkpt lat="47.99431" lon="7.13736">
        <ele>841.5</ele>
        <time>2016-06-30T19:36:37.000Z</time>
      </trkpt>
      <trkpt lat="47.99431" lon="7.13735">
        <ele>841.6</ele>
        <time>2016-06-30T19:36:38.000Z</time>
      </trkpt>
      <trkpt lat="47.99431" lon="7.13735">
        <ele>841.7</ele>
        <time>2016-06-30T19:36:39.000Z</time>
      </trkpt>
      <trkpt lat="47.99431" lon="7.13735">
        <ele>841.7</ele>
        <time>2016-06-30T19:36:40.000Z</time>
      </trkpt>
      <trkpt lat="47.99431" lon="7.13735">
        <ele>841.8</ele>
        <time>2016-06-30T19:36:56.000Z</time>
      </trkpt>
      <trkpt lat="47.99431" lon="7.13735">
        <ele>841.9</ele>
        <time>2016-06-30T19:37:01.000Z</time>
      </trkpt>
      <trkpt lat="47.99432" lon="7.13734">
        <ele>841.9</ele>
        <time>2016-06-30T19:37:06.000Z</time>
      </trkpt>
      <trkpt lat="47.99432" lon="7.13734">
        <ele>842</ele>
        <time>2016-06-30T19:37:10.000Z</time>
      </trkpt>
      <trkpt lat="47.99432" lon="7.13734">
        <ele>842.2</ele>
        <time>2016-06-30T19:37:13.000Z</time>
      </trkpt>
      <trkpt lat="47.99432" lon="7.13734">
        <ele>842.3</ele>
        <time>2016-06-30T19:37:14.000Z</time>
      </trkpt>
      <trkpt lat="47.99433" lon="7.13734">
        <ele>842.2</ele>
        <time>2016-06-30T19:37:15.000Z</time>
      </trkpt>
      <trkpt lat="47.99436" lon="7.13736">
        <ele>841.8</ele>
        <time>2016-06-30T19:37:18.000Z</time>
      </trkpt>
      <trkpt lat="47.99438" lon="7.13737">
        <ele>841.6</ele>
        <time>2016-06-30T19:37:20.000Z</time>
      </trkpt>
      <trkpt lat="47.99439" lon="7.13738">
        <ele>841.5</ele>
        <time>2016-06-30T19:37:23.000Z</time>
      </trkpt>
      <trkpt lat="47.99439" lon="7.13738">
        <ele>841.6</ele>
        <time>2016-06-30T19:37:25.000Z</time>
      </trkpt>
      <trkpt lat="47.99439" lon="7.13738">
        <ele>841.6</ele>
        <time>2016-06-30T19:37:26.000Z</time>
      </trkpt>
      <trkpt lat="47.99477" lon="7.13752">
        <ele>840.6</ele>
        <time>2016-06-30T19:37:46.000Z</time>
      </trkpt>
      <trkpt lat="47.99479" lon="7.13753">
        <ele>840.7</ele>
        <time>2016-06-30T19:37:47.000Z</time>
      </trkpt>
      <trkpt lat="47.99482" lon="7.13753">
        <ele>840.9</ele>
        <time>2016-06-30T19:37:49.000Z</time>
      </trkpt>
      <trkpt lat="47.99487" lon="7.13753">
        <ele>841.3</ele>
        <time>2016-06-30T19:37:52.000Z</time>
      </trkpt>
      <trkpt lat="47.99492" lon="7.13752">
        <ele>841.8</ele>
        <time>2016-06-30T19:37:55.000Z</time>
      </trkpt>
      <trkpt lat="47.99497" lon="7.13753">
        <ele>842.1</ele>
        <time>2016-06-30T19:37:58.000Z</time>
      </trkpt>
      <trkpt lat="47.99502" lon="7.13754">
        <ele>842.5</ele>
        <time>2016-06-30T19:38:01.000Z</time>
      </trkpt>
      <trkpt lat="47.99505" lon="7.13755">
        <ele>842.9</ele>
        <time>2016-06-30T19:38:03.000Z</time>
      </trkpt>
      <trkpt lat="47.99508" lon="7.13756">
        <ele>843.1</ele>
        <time>2016-06-30T19:38:05.000Z</time>
      </trkpt>
      <trkpt lat="47.99514" lon="7.13759">
        <ele>843.5</ele>
        <time>2016-06-30T19:38:09.000Z</time>
      </trkpt>
      <trkpt lat="47.9952" lon="7.13763">
        <ele>843.6</ele>
        <time>2016-06-30T19:38:13.000Z</time>
      </trkpt>
      <trkpt lat="47.99532" lon="7.13771">
        <ele>843.7</ele>
        <time>2016-06-30T19:38:21.000Z</time>
      </trkpt>
      <trkpt lat="47.99537" lon="7.13773">
        <ele>843.9</ele>
        <time>2016-06-30T19:38:24.000Z</time>
      </trkpt>
      <trkpt lat="47.99558" lon="7.13779">
        <ele>845.5</ele>
        <time>2016-06-30T19:38:37.000Z</time>
      </trkpt>
      <trkpt lat="47.9956" lon="7.13779">
        <ele>845.7</ele>
        <time>2016-06-30T19:38:38.000Z</time>
      </trkpt>
      <trkpt lat="47.99593" lon="7.13782">
        <ele>848.6</ele>
        <time>2016-06-30T19:38:58.000Z</time>
      </trkpt>
      <trkpt lat="47.99595" lon="7.13782">
        <ele>848.5</ele>
        <time>2016-06-30T19:39:00.000Z</time>
      </trkpt>
      <trkpt lat="47.99595" lon="7.13782">
        <ele>848.5</ele>
        <time>2016-06-30T19:39:01.000Z</time>
      </trkpt>
      <trkpt lat="47.99595" lon="7.13782">
        <ele>848.5</ele>
        <time>2016-06-30T19:39:03.000Z</time>
      </trkpt>
      <trkpt lat="47.99595" lon="7.13782">
        <ele>848.5</ele>
        <time>2016-06-30T19:43:40.000Z</time>
      </trkpt>
      <trkpt lat="47.99595" lon="7.13782">
        <ele>848.5</ele>
        <time>2016-06-30T19:43:42.000Z</time>
      </trkpt>
      <trkpt lat="47.99596" lon="7.13782">
        <ele>848.6</ele>
        <time>2016-06-30T19:43:43.000Z</time>
      </trkpt>
      <trkpt lat="47.99596" lon="7.13782">
        <ele>848.7</ele>
        <time>2016-06-30T19:43:44.000Z</time>
      </trkpt>
      <trkpt lat="47.996" lon="7.13782">
        <ele>848.6</ele>
        <time>2016-06-30T19:43:47.000Z</time>
      </trkpt>
      <trkpt lat="47.99605" lon="7.13783">
        <ele>848.4</ele>
        <time>2016-06-30T19:43:49.000Z</time>
      </trkpt>
      <trkpt lat="47.99608" lon="7.13784">
        <ele>848.2</ele>
        <time>2016-06-30T19:43:50.000Z</time>
      </trkpt>
      <trkpt lat="47.99663" lon="7.13807">
        <ele>842.2</ele>
        <time>2016-06-30T19:44:05.000Z</time>
      </trkpt>
      <trkpt lat="47.99764" lon="7.13858">
        <ele>840.6</ele>
        <time>2016-06-30T19:44:24.000Z</time>
      </trkpt>
      <trkpt lat="47.99775" lon="7.13866">
        <ele>840.1</ele>
        <time>2016-06-30T19:44:26.000Z</time>
      </trkpt>
      <trkpt lat="47.9985" lon="7.13956">
        <ele>826</ele>
        <time>2016-06-30T19:44:40.000Z</time>
      </trkpt>
      <trkpt lat="47.99857" lon="7.13962">
        <ele>825.9</ele>
        <time>2016-06-30T19:44:41.000Z</time>
      </trkpt>
      <trkpt lat="47.99863" lon="7.13966">
        <ele>826.2</ele>
        <time>2016-06-30T19:44:42.000Z</time>
      </trkpt>
      <trkpt lat="47.99874" lon="7.13971">
        <ele>827.4</ele>
        <time>2016-06-30T19:44:44.000Z</time>
      </trkpt>
      <trkpt lat="47.99878" lon="7.13972">
        <ele>828.2</ele>
        <time>2016-06-30T19:44:45.000Z</time>
      </trkpt>
      <trkpt lat="47.99885" lon="7.13973">
        <ele>829.6</ele>
        <time>2016-06-30T19:44:47.000Z</time>
      </trkpt>
      <trkpt lat="47.99895" lon="7.13973">
        <ele>832</ele>
        <time>2016-06-30T19:44:51.000Z</time>
      </trkpt>
      <trkpt lat="47.99901" lon="7.13974">
        <ele>833.2</ele>
        <time>2016-06-30T19:44:54.000Z</time>
      </trkpt>
      <trkpt lat="47.99939" lon="7.13989">
        <ele>837.6</ele>
        <time>2016-06-30T19:45:16.000Z</time>
      </trkpt>
      <trkpt lat="47.99943" lon="7.1399">
        <ele>838</ele>
        <time>2016-06-30T19:45:18.000Z</time>
      </trkpt>
      <trkpt lat="47.99961" lon="7.13991">
        <ele>841.4</ele>
        <time>2016-06-30T19:45:30.000Z</time>
      </trkpt>
      <trkpt lat="47.99977" lon="7.13994">
        <ele>843.8</ele>
        <time>2016-06-30T19:45:41.000Z</time>
      </trkpt>
      <trkpt lat="47.99983" lon="7.13996">
        <ele>844.8</ele>
        <time>2016-06-30T19:45:46.000Z</time>
      </trkpt>
      <trkpt lat="48" lon="7.14">
        <ele>847.1</ele>
        <time>2016-06-30T19:46:02.000Z</time>
      </trkpt>
      <trkpt lat="48.00005" lon="7.14001">
        <ele>848</ele>
        <time>2016-06-30T19:46:04.000Z</time>
      </trkpt>
      <trkpt lat="48.00013" lon="7.14004">
        <ele>848.6</ele>
        <time>2016-06-30T19:46:09.000Z</time>
      </trkpt>
      <trkpt lat="48.00014" lon="7.14004">
        <ele>848.8</ele>
        <time>2016-06-30T19:46:10.000Z</time>
      </trkpt>
      <trkpt lat="48.00015" lon="7.14004">
        <ele>849</ele>
        <time>2016-06-30T19:46:11.000Z</time>
      </trkpt>
      <trkpt lat="48.00033" lon="7.14009">
        <ele>851.6</ele>
        <time>2016-06-30T19:46:24.000Z</time>
      </trkpt>
      <trkpt lat="48.00063" lon="7.14013">
        <ele>856.9</ele>
        <time>2016-06-30T19:46:46.000Z</time>
      </trkpt>
      <trkpt lat="48.00067" lon="7.14015">
        <ele>857.3</ele>
        <time>2016-06-30T19:46:51.000Z</time>
      </trkpt>
      <trkpt lat="48.00067" lon="7.14015">
        <ele>857.3</ele>
        <time>2016-06-30T19:46:52.000Z</time>
      </trkpt>
      <trkpt lat="48.00068" lon="7.14015">
        <ele>857.4</ele>
        <time>2016-06-30T19:46:53.000Z</time>
      </trkpt>
      <trkpt lat="48.00069" lon="7.14015">
        <ele>857.5</ele>
        <time>2016-06-30T19:46:54.000Z</time>
      </trkpt>
      <trkpt lat="48.00073" lon="7.14015">
        <ele>858.4</ele>
        <time>2016-06-30T19:46:56.000Z</time>
      </trkpt>
      <trkpt lat="48.00074" lon="7.14016">
        <ele>858.6</ele>
        <time>2016-06-30T19:46:57.000Z</time>
      </trkpt>
      <trkpt lat="48.00076" lon="7.14016">
        <ele>858.7</ele>
        <time>2016-06-30T19:46:58.000Z</time>
      </trkpt>
      <trkpt lat="48.00077" lon="7.14017">
        <ele>859</ele>
        <time>2016-06-30T19:46:59.000Z</time>
      </trkpt>
      <trkpt lat="48.00079" lon="7.14017">
        <ele>859.3</ele>
        <time>2016-06-30T19:47:00.000Z</time>
      </trkpt>
      <trkpt lat="48.00084" lon="7.14018">
        <ele>860.2</ele>
        <time>2016-06-30T19:47:03.000Z</time>
      </trkpt>
      <trkpt lat="48.00092" lon="7.14019">
        <ele>861.4</ele>
        <time>2016-06-30T19:47:08.000Z</time>
      </trkpt>
      <trkpt lat="48.00111" lon="7.14024">
        <ele>864</ele>
        <time>2016-06-30T19:47:24.000Z</time>
      </trkpt>
      <trkpt lat="48.00112" lon="7.14025">
        <ele>864.1</ele>
        <time>2016-06-30T19:47:25.000Z</time>
      </trkpt>
      <trkpt lat="48.00117" lon="7.14026">
        <ele>864.7</ele>
        <time>2016-06-30T19:47:28.000Z</time>
      </trkpt>
      <trkpt lat="48.0012" lon="7.14026">
        <ele>865.2</ele>
        <time>2016-06-30T19:47:30.000Z</time>
      </trkpt>
      <trkpt lat="48.00125" lon="7.14028">
        <ele>865.7</ele>
        <time>2016-06-30T19:47:33.000Z</time>
      </trkpt>
      <trkpt lat="48.00133" lon="7.14031">
        <ele>866.1</ele>
        <time>2016-06-30T19:47:38.000Z</time>
      </trkpt>
      <trkpt lat="48.00135" lon="7.14032">
        <ele>866.1</ele>
        <time>2016-06-30T19:47:41.000Z</time>
      </trkpt>
      <trkpt lat="48.00136" lon="7.14033">
        <ele>866.1</ele>
        <time>2016-06-30T19:47:43.000Z</time>
      </trkpt>
      <trkpt lat="48.00137" lon="7.14033">
        <ele>866</ele>
        <time>2016-06-30T19:47:44.000Z</time>
      </trkpt>
      <trkpt lat="48.00142" lon="7.14036">
        <ele>866.3</ele>
        <time>2016-06-30T19:47:48.000Z</time>
      </trkpt>
      <trkpt lat="48.00146" lon="7.14038">
        <ele>866.2</ele>
        <time>2016-06-30T19:47:51.000Z</time>
      </trkpt>
      <trkpt lat="48.00151" lon="7.1404">
        <ele>866.3</ele>
        <time>2016-06-30T19:47:54.000Z</time>
      </trkpt>
      <trkpt lat="48.00188" lon="7.14054">
        <ele>865</ele>
        <time>2016-06-30T19:48:19.000Z</time>
      </trkpt>
      <trkpt lat="48.00196" lon="7.14056">
        <ele>864.6</ele>
        <time>2016-06-30T19:48:24.000Z</time>
      </trkpt>
      <trkpt lat="48.00209" lon="7.14058">
        <ele>864.4</ele>
        <time>2016-06-30T19:48:36.000Z</time>
      </trkpt>
      <trkpt lat="48.00214" lon="7.14058">
        <ele>864.6</ele>
        <time>2016-06-30T19:48:38.000Z</time>
      </trkpt>
      <trkpt lat="48.00216" lon="7.14058">
        <ele>864.8</ele>
        <time>2016-06-30T19:48:39.000Z</time>
      </trkpt>
      <trkpt lat="48.00221" lon="7.14057">
        <ele>865.6</ele>
        <time>2016-06-30T19:48:42.000Z</time>
      </trkpt>
      <trkpt lat="48.00233" lon="7.14053">
        <ele>868.3</ele>
        <time>2016-06-30T19:48:50.000Z</time>
      </trkpt>
      <trkpt lat="48.00248" lon="7.14046">
        <ele>873</ele>
        <time>2016-06-30T19:49:03.000Z</time>
      </trkpt>
      <trkpt lat="48.00253" lon="7.14044">
        <ele>874.3</ele>
        <time>2016-06-30T19:49:07.000Z</time>
      </trkpt>
      <trkpt lat="48.00281" lon="7.14028">
        <ele>881</ele>
        <time>2016-06-30T19:49:30.000Z</time>
      </trkpt>
      <trkpt lat="48.00325" lon="7.14007">
        <ele>888.4</ele>
        <time>2016-06-30T19:50:05.000Z</time>
      </trkpt>
      <trkpt lat="48.00326" lon="7.14007">
        <ele>888.5</ele>
        <time>2016-06-30T19:50:06.000Z</time>
      </trkpt>
      <trkpt lat="48.00332" lon="7.14004">
        <ele>889.3</ele>
        <time>2016-06-30T19:50:11.000Z</time>
      </trkpt>
      <trkpt lat="48.00343" lon="7.13999">
        <ele>890</ele>
        <time>2016-06-30T19:50:19.000Z</time>
      </trkpt>
      <trkpt lat="48.00346" lon="7.13997">
        <ele>890</ele>
        <time>2016-06-30T19:50:21.000Z</time>
      </trkpt>
      <trkpt lat="48.00347" lon="7.13997">
        <ele>889.9</ele>
        <time>2016-06-30T19:50:22.000Z</time>
      </trkpt>
      <trkpt lat="48.00351" lon="7.13996">
        <ele>889.8</ele>
        <time>2016-06-30T19:50:25.000Z</time>
      </trkpt>
      <trkpt lat="48.00368" lon="7.1399">
        <ele>888.8</ele>
        <time>2016-06-30T19:50:40.000Z</time>
      </trkpt>
      <trkpt lat="48.00374" lon="7.13988">
        <ele>888.7</ele>
        <time>2016-06-30T19:50:45.000Z</time>
      </trkpt>
      <trkpt lat="48.00396" lon="7.13979">
        <ele>888.4</ele>
        <time>2016-06-30T19:51:03.000Z</time>
      </trkpt>
      <trkpt lat="48.00408" lon="7.13973">
        <ele>888.5</ele>
        <time>2016-06-30T19:51:12.000Z</time>
      </trkpt>
      <trkpt lat="48.00419" lon="7.13968">
        <ele>889.2</ele>
        <time>2016-06-30T19:51:21.000Z</time>
      </trkpt>
      <trkpt lat="48.0042" lon="7.13967">
        <ele>889.5</ele>
        <time>2016-06-30T19:51:22.000Z</time>
      </trkpt>
      <trkpt lat="48.00421" lon="7.13966">
        <ele>889.8</ele>
        <time>2016-06-30T19:51:23.000Z</time>
      </trkpt>
      <trkpt lat="48.00426" lon="7.13962">
        <ele>891.4</ele>
        <time>2016-06-30T19:51:27.000Z</time>
      </trkpt>
      <trkpt lat="48.0043" lon="7.13957">
        <ele>892.9</ele>
        <time>2016-06-30T19:51:31.000Z</time>
      </trkpt>
      <trkpt lat="48.00433" lon="7.13953">
        <ele>894.1</ele>
        <time>2016-06-30T19:51:34.000Z</time>
      </trkpt>
      <trkpt lat="48.00438" lon="7.13944">
        <ele>896.5</ele>
        <time>2016-06-30T19:51:39.000Z</time>
      </trkpt>
      <trkpt lat="48.00441" lon="7.13936">
        <ele>898.3</ele>
        <time>2016-06-30T19:51:43.000Z</time>
      </trkpt>
      <trkpt lat="48.00446" lon="7.13918">
        <ele>902.4</ele>
        <time>2016-06-30T19:51:53.000Z</time>
      </trkpt>
      <trkpt lat="48.00448" lon="7.13912">
        <ele>903</ele>
        <time>2016-06-30T19:51:56.000Z</time>
      </trkpt>
      <trkpt lat="48.00456" lon="7.13883">
        <ele>905.5</ele>
        <time>2016-06-30T19:52:11.000Z</time>
      </trkpt>
      <trkpt lat="48.00459" lon="7.13876">
        <ele>906.2</ele>
        <time>2016-06-30T19:52:15.000Z</time>
      </trkpt>
      <trkpt lat="48.00463" lon="7.13868">
        <ele>906.8</ele>
        <time>2016-06-30T19:52:19.000Z</time>
      </trkpt>
      <trkpt lat="48.00482" lon="7.13838">
        <ele>909.6</ele>
        <time>2016-06-30T19:52:36.000Z</time>
      </trkpt>
      <trkpt lat="48.00483" lon="7.13836">
        <ele>909.7</ele>
        <time>2016-06-30T19:52:37.000Z</time>
      </trkpt>
      <trkpt lat="48.00487" lon="7.13829">
        <ele>910.3</ele>
        <time>2016-06-30T19:52:41.000Z</time>
      </trkpt>
      <trkpt lat="48.00489" lon="7.13825">
        <ele>910.6</ele>
        <time>2016-06-30T19:52:43.000Z</time>
      </trkpt>
      <trkpt lat="48.00496" lon="7.13802">
        <ele>911.7</ele>
        <time>2016-06-30T19:52:56.000Z</time>
      </trkpt>
      <trkpt lat="48.00497" lon="7.13801">
        <ele>911.7</ele>
        <time>2016-06-30T19:52:58.000Z</time>
      </trkpt>
      <trkpt lat="48.00497" lon="7.13801">
        <ele>911.7</ele>
        <time>2016-06-30T19:52:59.000Z</time>
      </trkpt>
      <trkpt lat="48.00497" lon="7.13801">
        <ele>911.7</ele>
        <time>2016-06-30T19:53:55.000Z</time>
      </trkpt>
      <trkpt lat="48.00497" lon="7.13801">
        <ele>911.7</ele>
        <time>2016-06-30T19:53:59.000Z</time>
      </trkpt>
      <trkpt lat="48.00497" lon="7.13801">
        <ele>911.7</ele>
        <time>2016-06-30T19:54:02.000Z</time>
      </trkpt>
      <trkpt lat="48.00497" lon="7.138">
        <ele>911.7</ele>
        <time>2016-06-30T19:54:03.000Z</time>
      </trkpt>
      <trkpt lat="48.00497" lon="7.138">
        <ele>911.7</ele>
        <time>2016-06-30T19:54:04.000Z</time>
      </trkpt>
      <trkpt lat="48.00498" lon="7.138">
        <ele>911.7</ele>
        <time>2016-06-30T19:54:05.000Z</time>
      </trkpt>
      <trkpt lat="48.00499" lon="7.13799">
        <ele>911.7</ele>
        <time>2016-06-30T19:54:06.000Z</time>
      </trkpt>
      <trkpt lat="48.005" lon="7.138">
        <ele>911.6</ele>
        <time>2016-06-30T19:54:07.000Z</time>
      </trkpt>
      <trkpt lat="48.00502" lon="7.138">
        <ele>911.6</ele>
        <time>2016-06-30T19:54:08.000Z</time>
      </trkpt>
      <trkpt lat="48.00503" lon="7.13802">
        <ele>911.6</ele>
        <time>2016-06-30T19:54:09.000Z</time>
      </trkpt>
      <trkpt lat="48.00508" lon="7.13806">
        <ele>911.5</ele>
        <time>2016-06-30T19:54:12.000Z</time>
      </trkpt>
      <trkpt lat="48.00516" lon="7.13814">
        <ele>911.4</ele>
        <time>2016-06-30T19:54:17.000Z</time>
      </trkpt>
      <trkpt lat="48.00524" lon="7.13821">
        <ele>911.4</ele>
        <time>2016-06-30T19:54:20.000Z</time>
      </trkpt>
      <trkpt lat="48.00533" lon="7.13827">
        <ele>911.7</ele>
        <time>2016-06-30T19:54:25.000Z</time>
      </trkpt>
      <trkpt lat="48.00533" lon="7.13827">
        <ele>911.7</ele>
        <time>2016-06-30T19:54:26.000Z</time>
      </trkpt>
      <trkpt lat="48.00533" lon="7.13827">
        <ele>911.7</ele>
        <time>2016-06-30T19:54:28.000Z</time>
      </trkpt>
      <trkpt lat="48.00533" lon="7.13827">
        <ele>911.7</ele>
        <time>2016-06-30T19:54:32.000Z</time>
      </trkpt>
      <trkpt lat="48.00533" lon="7.13827">
        <ele>911.7</ele>
        <time>2016-06-30T19:54:35.000Z</time>
      </trkpt>
      <trkpt lat="48.00534" lon="7.13826">
        <ele>911.7</ele>
        <time>2016-06-30T19:54:41.000Z</time>
      </trkpt>
      <trkpt lat="48.00534" lon="7.13826">
        <ele>911.7</ele>
        <time>2016-06-30T19:54:42.000Z</time>
      </trkpt>
      <trkpt lat="48.00534" lon="7.13826">
        <ele>911.7</ele>
        <time>2016-06-30T19:54:43.000Z</time>
      </trkpt>
      <trkpt lat="48.00535" lon="7.13826">
        <ele>911.8</ele>
        <time>2016-06-30T19:54:44.000Z</time>
      </trkpt>
      <trkpt lat="48.00535" lon="7.13826">
        <ele>911.8</ele>
        <time>2016-06-30T19:54:45.000Z</time>
      </trkpt>
      <trkpt lat="48.00536" lon="7.13825">
        <ele>911.8</ele>
        <time>2016-06-30T19:54:46.000Z</time>
      </trkpt>
      <trkpt lat="48.00538" lon="7.13825">
        <ele>911.9</ele>
        <time>2016-06-30T19:54:48.000Z</time>
      </trkpt>
      <trkpt lat="48.00538" lon="7.13824">
        <ele>911.9</ele>
        <time>2016-06-30T19:54:50.000Z</time>
      </trkpt>
      <trkpt lat="48.00539" lon="7.13824">
        <ele>912</ele>
        <time>2016-06-30T19:55:02.000Z</time>
      </trkpt>
      <trkpt lat="48.0054" lon="7.13824">
        <ele>912</ele>
        <time>2016-06-30T19:55:10.000Z</time>
      </trkpt>
      <trkpt lat="48.0054" lon="7.13825">
        <ele>912</ele>
        <time>2016-06-30T19:55:16.000Z</time>
      </trkpt>
      <trkpt lat="48.00541" lon="7.13825">
        <ele>912</ele>
        <time>2016-06-30T19:55:18.000Z</time>
      </trkpt>
      <trkpt lat="48.00541" lon="7.13825">
        <ele>912</ele>
        <time>2016-06-30T19:55:19.000Z</time>
      </trkpt>
      <trkpt lat="48.00541" lon="7.13825">
        <ele>912</ele>
        <time>2016-06-30T19:55:20.000Z</time>
      </trkpt>
      <trkpt lat="48.00541" lon="7.13825">
        <ele>912</ele>
        <time>2016-06-30T19:55:21.000Z</time>
      </trkpt>
      <trkpt lat="48.00542" lon="7.13826">
        <ele>912.1</ele>
        <time>2016-06-30T19:55:22.000Z</time>
      </trkpt>
      <trkpt lat="48.00564" lon="7.13841">
        <ele>912.8</ele>
        <time>2016-06-30T19:55:36.000Z</time>
      </trkpt>
      <trkpt lat="48.00569" lon="7.13843">
        <ele>913</ele>
        <time>2016-06-30T19:55:38.000Z</time>
      </trkpt>
      <trkpt lat="48.00577" lon="7.13846">
        <ele>913.5</ele>
        <time>2016-06-30T19:55:41.000Z</time>
      </trkpt>
      <trkpt lat="48.00587" lon="7.13848">
        <ele>913.5</ele>
        <time>2016-06-30T19:55:44.000Z</time>
      </trkpt>
      <trkpt lat="48.00594" lon="7.13849">
        <ele>912.9</ele>
        <time>2016-06-30T19:55:46.000Z</time>
      </trkpt>
      <trkpt lat="48.00656" lon="7.13849">
        <ele>908</ele>
        <time>2016-06-30T19:55:58.000Z</time>
      </trkpt>
      <trkpt lat="48.00668" lon="7.13848">
        <ele>906.9</ele>
        <time>2016-06-30T19:56:00.000Z</time>
      </trkpt>
      <trkpt lat="48.00679" lon="7.13845">
        <ele>904.9</ele>
        <time>2016-06-30T19:56:02.000Z</time>
      </trkpt>
      <trkpt lat="48.00684" lon="7.13843">
        <ele>904.1</ele>
        <time>2016-06-30T19:56:03.000Z</time>
      </trkpt>
      <trkpt lat="48.00709" lon="7.13828">
        <ele>900.7</ele>
        <time>2016-06-30T19:56:07.000Z</time>
      </trkpt>
      <trkpt lat="48.00773" lon="7.13767">
        <ele>894.6</ele>
        <time>2016-06-30T19:56:17.000Z</time>
      </trkpt>
      <trkpt lat="48.00787" lon="7.13758">
        <ele>893.8</ele>
        <time>2016-06-30T19:56:19.000Z</time>
      </trkpt>
      <trkpt lat="48.00806" lon="7.13747">
        <ele>892.4</ele>
        <time>2016-06-30T19:56:22.000Z</time>
      </trkpt>
      <trkpt lat="48.00853" lon="7.13729">
        <ele>888.3</ele>
        <time>2016-06-30T19:56:29.000Z</time>
      </trkpt>
      <trkpt lat="48.0088" lon="7.1372">
        <ele>885.7</ele>
        <time>2016-06-30T19:56:33.000Z</time>
      </trkpt>
      <trkpt lat="48.00887" lon="7.13719">
        <ele>885</ele>
        <time>2016-06-30T19:56:34.000Z</time>
      </trkpt>
      <trkpt lat="48.00893" lon="7.13719">
        <ele>884.2</ele>
        <time>2016-06-30T19:56:35.000Z</time>
      </trkpt>
      <trkpt lat="48.009" lon="7.13719">
        <ele>883.3</ele>
        <time>2016-06-30T19:56:36.000Z</time>
      </trkpt>
      <trkpt lat="48.00907" lon="7.13721">
        <ele>882.3</ele>
        <time>2016-06-30T19:56:37.000Z</time>
      </trkpt>
      <trkpt lat="48.00913" lon="7.13724">
        <ele>881.3</ele>
        <time>2016-06-30T19:56:38.000Z</time>
      </trkpt>
      <trkpt lat="48.00919" lon="7.13728">
        <ele>880.5</ele>
        <time>2016-06-30T19:56:39.000Z</time>
      </trkpt>
      <trkpt lat="48.00923" lon="7.13734">
        <ele>879.9</ele>
        <time>2016-06-30T19:56:40.000Z</time>
      </trkpt>
      <trkpt lat="48.00927" lon="7.1374">
        <ele>879.4</ele>
        <time>2016-06-30T19:56:41.000Z</time>
      </trkpt>
      <trkpt lat="48.0093" lon="7.13747">
        <ele>878.9</ele>
        <time>2016-06-30T19:56:42.000Z</time>
      </trkpt>
      <trkpt lat="48.00931" lon="7.13755">
        <ele>878.1</ele>
        <time>2016-06-30T19:56:43.000Z</time>
      </trkpt>
      <trkpt lat="48.00931" lon="7.13762">
        <ele>877.2</ele>
        <time>2016-06-30T19:56:44.000Z</time>
      </trkpt>
      <trkpt lat="48.0093" lon="7.13768">
        <ele>876.4</ele>
        <time>2016-06-30T19:56:45.000Z</time>
      </trkpt>
      <trkpt lat="48.00927" lon="7.13774">
        <ele>875.7</ele>
        <time>2016-06-30T19:56:46.000Z</time>
      </trkpt>
      <trkpt lat="48.00923" lon="7.13779">
        <ele>875.1</ele>
        <time>2016-06-30T19:56:47.000Z</time>
      </trkpt>
      <trkpt lat="48.00918" lon="7.13783">
        <ele>874.7</ele>
        <time>2016-06-30T19:56:48.000Z</time>
      </trkpt>
      <trkpt lat="48.00913" lon="7.13786">
        <ele>874.7</ele>
        <time>2016-06-30T19:56:49.000Z</time>
      </trkpt>
      <trkpt lat="48.00869" lon="7.138">
        <ele>877.4</ele>
        <time>2016-06-30T19:56:56.000Z</time>
      </trkpt>
      <trkpt lat="48.00857" lon="7.13806">
        <ele>877.8</ele>
        <time>2016-06-30T19:56:58.000Z</time>
      </trkpt>
      <trkpt lat="48.00851" lon="7.1381">
        <ele>877.8</ele>
        <time>2016-06-30T19:56:59.000Z</time>
      </trkpt>
      <trkpt lat="48.00846" lon="7.13815">
        <ele>877.6</ele>
        <time>2016-06-30T19:57:00.000Z</time>
      </trkpt>
      <trkpt lat="48.00842" lon="7.1382">
        <ele>877.2</ele>
        <time>2016-06-30T19:57:01.000Z</time>
      </trkpt>
      <trkpt lat="48.00838" lon="7.13827">
        <ele>876.5</ele>
        <time>2016-06-30T19:57:02.000Z</time>
      </trkpt>
      <trkpt lat="48.00799" lon="7.13925">
        <ele>863.9</ele>
        <time>2016-06-30T19:57:14.000Z</time>
      </trkpt>
      <trkpt lat="48.00794" lon="7.13942">
        <ele>861.7</ele>
        <time>2016-06-30T19:57:16.000Z</time>
      </trkpt>
      <trkpt lat="48.00778" lon="7.14007">
        <ele>853.4</ele>
        <time>2016-06-30T19:57:23.000Z</time>
      </trkpt>
      <trkpt lat="48.00775" lon="7.14025">
        <ele>851.6</ele>
        <time>2016-06-30T19:57:25.000Z</time>
      </trkpt>
      <trkpt lat="48.00772" lon="7.14049">
        <ele>848.6</ele>
        <time>2016-06-30T19:57:28.000Z</time>
      </trkpt>
      <trkpt lat="48.00771" lon="7.14191">
        <ele>835.8</ele>
        <time>2016-06-30T19:57:45.000Z</time>
      </trkpt>
      <trkpt lat="48.00772" lon="7.14208">
        <ele>835.8</ele>
        <time>2016-06-30T19:57:47.000Z</time>
      </trkpt>
      <trkpt lat="48.00774" lon="7.14225">
        <ele>835.3</ele>
        <time>2016-06-30T19:57:49.000Z</time>
      </trkpt>
      <trkpt lat="48.00778" lon="7.1424">
        <ele>834.1</ele>
        <time>2016-06-30T19:57:51.000Z</time>
      </trkpt>
      <trkpt lat="48.00781" lon="7.14247">
        <ele>833.2</ele>
        <time>2016-06-30T19:57:52.000Z</time>
      </trkpt>
      <trkpt lat="48.00784" lon="7.14251">
        <ele>832.4</ele>
        <time>2016-06-30T19:57:53.000Z</time>
      </trkpt>
      <trkpt lat="48.00788" lon="7.14254">
        <ele>831.4</ele>
        <time>2016-06-30T19:57:54.000Z</time>
      </trkpt>
      <trkpt lat="48.00791" lon="7.14254">
        <ele>830</ele>
        <time>2016-06-30T19:57:55.000Z</time>
      </trkpt>
      <trkpt lat="48.00795" lon="7.14253">
        <ele>828.2</ele>
        <time>2016-06-30T19:57:56.000Z</time>
      </trkpt>
      <trkpt lat="48.00798" lon="7.1425">
        <ele>826.5</ele>
        <time>2016-06-30T19:57:57.000Z</time>
      </trkpt>
      <trkpt lat="48.008" lon="7.14247">
        <ele>825.4</ele>
        <time>2016-06-30T19:57:58.000Z</time>
      </trkpt>
      <trkpt lat="48.00801" lon="7.14244">
        <ele>824.7</ele>
        <time>2016-06-30T19:57:59.000Z</time>
      </trkpt>
      <trkpt lat="48.00801" lon="7.14241">
        <ele>824.4</ele>
        <time>2016-06-30T19:58:00.000Z</time>
      </trkpt>
      <trkpt lat="48.00801" lon="7.14239">
        <ele>824.4</ele>
        <time>2016-06-30T19:58:01.000Z</time>
      </trkpt>
      <trkpt lat="48.00797" lon="7.14231">
        <ele>825.4</ele>
        <time>2016-06-30T19:58:05.000Z</time>
      </trkpt>
      <trkpt lat="48.00796" lon="7.14225">
        <ele>825.7</ele>
        <time>2016-06-30T19:58:07.000Z</time>
      </trkpt>
      <trkpt lat="48.00795" lon="7.14215">
        <ele>825.4</ele>
        <time>2016-06-30T19:58:09.000Z</time>
      </trkpt>
      <trkpt lat="48.00796" lon="7.14203">
        <ele>824.3</ele>
        <time>2016-06-30T19:58:11.000Z</time>
      </trkpt>
      <trkpt lat="48.00799" lon="7.14186">
        <ele>821.8</ele>
        <time>2016-06-30T19:58:14.000Z</time>
      </trkpt>
      <trkpt lat="48.00822" lon="7.14098">
        <ele>818</ele>
        <time>2016-06-30T19:58:25.000Z</time>
      </trkpt>
      <trkpt lat="48.00831" lon="7.14077">
        <ele>817.8</ele>
        <time>2016-06-30T19:58:28.000Z</time>
      </trkpt>
      <trkpt lat="48.00838" lon="7.14064">
        <ele>817.8</ele>
        <time>2016-06-30T19:58:30.000Z</time>
      </trkpt>
      <trkpt lat="48.00846" lon="7.14052">
        <ele>817.7</ele>
        <time>2016-06-30T19:58:32.000Z</time>
      </trkpt>
      <trkpt lat="48.00856" lon="7.14041">
        <ele>817.1</ele>
        <time>2016-06-30T19:58:34.000Z</time>
      </trkpt>
      <trkpt lat="48.00867" lon="7.1403">
        <ele>816.1</ele>
        <time>2016-06-30T19:58:36.000Z</time>
      </trkpt>
      <trkpt lat="48.0088" lon="7.1402">
        <ele>814.9</ele>
        <time>2016-06-30T19:58:38.000Z</time>
      </trkpt>
      <trkpt lat="48.00894" lon="7.14011">
        <ele>813.2</ele>
        <time>2016-06-30T19:58:40.000Z</time>
      </trkpt>
      <trkpt lat="48.00907" lon="7.14005">
        <ele>811</ele>
        <time>2016-06-30T19:58:42.000Z</time>
      </trkpt>
      <trkpt lat="48.00921" lon="7.14002">
        <ele>808.9</ele>
        <time>2016-06-30T19:58:44.000Z</time>
      </trkpt>
      <trkpt lat="48.00927" lon="7.14002">
        <ele>808.6</ele>
        <time>2016-06-30T19:58:45.000Z</time>
      </trkpt>
      <trkpt lat="48.00934" lon="7.14002">
        <ele>808</ele>
        <time>2016-06-30T19:58:46.000Z</time>
      </trkpt>
      <trkpt lat="48.00976" lon="7.14011">
        <ele>801.9</ele>
        <time>2016-06-30T19:58:53.000Z</time>
      </trkpt>
      <trkpt lat="48.00989" lon="7.14011">
        <ele>801</ele>
        <time>2016-06-30T19:58:55.000Z</time>
      </trkpt>
      <trkpt lat="48.01014" lon="7.14009">
        <ele>799.9</ele>
        <time>2016-06-30T19:58:59.000Z</time>
      </trkpt>
      <trkpt lat="48.01032" lon="7.14006">
        <ele>799.4</ele>
        <time>2016-06-30T19:59:02.000Z</time>
      </trkpt>
      <trkpt lat="48.01044" lon="7.14003">
        <ele>799.5</ele>
        <time>2016-06-30T19:59:04.000Z</time>
      </trkpt>
      <trkpt lat="48.01105" lon="7.13981">
        <ele>803.5</ele>
        <time>2016-06-30T19:59:12.000Z</time>
      </trkpt>
      <trkpt lat="48.01123" lon="7.13976">
        <ele>803.8</ele>
        <time>2016-06-30T19:59:14.000Z</time>
      </trkpt>
      <trkpt lat="48.0114" lon="7.13974">
        <ele>803.1</ele>
        <time>2016-06-30T19:59:16.000Z</time>
      </trkpt>
      <trkpt lat="48.01177" lon="7.13974">
        <ele>801.4</ele>
        <time>2016-06-30T19:59:21.000Z</time>
      </trkpt>
      <trkpt lat="48.01184" lon="7.13975">
        <ele>801.3</ele>
        <time>2016-06-30T19:59:22.000Z</time>
      </trkpt>
      <trkpt lat="48.0119" lon="7.13977">
        <ele>800.6</ele>
        <time>2016-06-30T19:59:23.000Z</time>
      </trkpt>
      <trkpt lat="48.01204" lon="7.13985">
        <ele>798.2</ele>
        <time>2016-06-30T19:59:26.000Z</time>
      </trkpt>
      <trkpt lat="48.01208" lon="7.13987">
        <ele>797.5</ele>
        <time>2016-06-30T19:59:29.000Z</time>
      </trkpt>
      <trkpt lat="48.01208" lon="7.13987">
        <ele>797.4</ele>
        <time>2016-06-30T19:59:30.000Z</time>
      </trkpt>
      <trkpt lat="48.01208" lon="7.13987">
        <ele>797.4</ele>
        <time>2016-06-30T19:59:32.000Z</time>
      </trkpt>
      <trkpt lat="48.01208" lon="7.13987">
        <ele>797.3</ele>
        <time>2016-06-30T19:59:33.000Z</time>
      </trkpt>
      <trkpt lat="48.01208" lon="7.13988">
        <ele>797.2</ele>
        <time>2016-06-30T20:00:19.000Z</time>
      </trkpt>
      <trkpt lat="48.01227" lon="7.13997">
        <ele>794.9</ele>
        <time>2016-06-30T20:00:27.000Z</time>
      </trkpt>
      <trkpt lat="48.01292" lon="7.14044">
        <ele>784.3</ele>
        <time>2016-06-30T20:00:40.000Z</time>
      </trkpt>
      <trkpt lat="48.01301" lon="7.14049">
        <ele>783.5</ele>
        <time>2016-06-30T20:00:42.000Z</time>
      </trkpt>
      <trkpt lat="48.01306" lon="7.1405">
        <ele>783.4</ele>
        <time>2016-06-30T20:00:43.000Z</time>
      </trkpt>
      <trkpt lat="48.01311" lon="7.14051">
        <ele>783.6</ele>
        <time>2016-06-30T20:00:44.000Z</time>
      </trkpt>
      <trkpt lat="48.01324" lon="7.1405">
        <ele>784.8</ele>
        <time>2016-06-30T20:00:46.000Z</time>
      </trkpt>
      <trkpt lat="48.01339" lon="7.14048">
        <ele>785.3</ele>
        <time>2016-06-30T20:00:48.000Z</time>
      </trkpt>
      <trkpt lat="48.01354" lon="7.14044">
        <ele>783.9</ele>
        <time>2016-06-30T20:00:50.000Z</time>
      </trkpt>
      <trkpt lat="48.01402" lon="7.14024">
        <ele>781.4</ele>
        <time>2016-06-30T20:00:56.000Z</time>
      </trkpt>
      <trkpt lat="48.01409" lon="7.14022">
        <ele>780.6</ele>
        <time>2016-06-30T20:00:57.000Z</time>
      </trkpt>
      <trkpt lat="48.01416" lon="7.14022">
        <ele>779.4</ele>
        <time>2016-06-30T20:00:58.000Z</time>
      </trkpt>
      <trkpt lat="48.01447" lon="7.14025">
        <ele>771.1</ele>
        <time>2016-06-30T20:01:03.000Z</time>
      </trkpt>
      <trkpt lat="48.01453" lon="7.14024">
        <ele>769.9</ele>
        <time>2016-06-30T20:01:04.000Z</time>
      </trkpt>
      <trkpt lat="48.01459" lon="7.14022">
        <ele>769</ele>
        <time>2016-06-30T20:01:05.000Z</time>
      </trkpt>
      <trkpt lat="48.01465" lon="7.1402">
        <ele>768.5</ele>
        <time>2016-06-30T20:01:06.000Z</time>
      </trkpt>
      <trkpt lat="48.01471" lon="7.14016">
        <ele>768.4</ele>
        <time>2016-06-30T20:01:07.000Z</time>
      </trkpt>
      <trkpt lat="48.01476" lon="7.14011">
        <ele>768.7</ele>
        <time>2016-06-30T20:01:08.000Z</time>
      </trkpt>
      <trkpt lat="48.01496" lon="7.1399">
        <ele>769</ele>
        <time>2016-06-30T20:01:12.000Z</time>
      </trkpt>
      <trkpt lat="48.015" lon="7.13983">
        <ele>768.6</ele>
        <time>2016-06-30T20:01:13.000Z</time>
      </trkpt>
      <trkpt lat="48.01531" lon="7.13911">
        <ele>768.2</ele>
        <time>2016-06-30T20:01:20.000Z</time>
      </trkpt>
      <trkpt lat="48.01547" lon="7.13886">
        <ele>766.4</ele>
        <time>2016-06-30T20:01:23.000Z</time>
      </trkpt>
      <trkpt lat="48.01565" lon="7.13862">
        <ele>763.9</ele>
        <time>2016-06-30T20:01:26.000Z</time>
      </trkpt>
      <trkpt lat="48.01579" lon="7.13848">
        <ele>761.8</ele>
        <time>2016-06-30T20:01:28.000Z</time>
      </trkpt>
      <trkpt lat="48.01587" lon="7.13842">
        <ele>761.1</ele>
        <time>2016-06-30T20:01:29.000Z</time>
      </trkpt>
      <trkpt lat="48.01595" lon="7.13837">
        <ele>761</ele>
        <time>2016-06-30T20:01:30.000Z</time>
      </trkpt>
      <trkpt lat="48.01603" lon="7.13834">
        <ele>760.8</ele>
        <time>2016-06-30T20:01:31.000Z</time>
      </trkpt>
      <trkpt lat="48.01619" lon="7.13829">
        <ele>761</ele>
        <time>2016-06-30T20:01:33.000Z</time>
      </trkpt>
      <trkpt lat="48.01673" lon="7.13826">
        <ele>758.5</ele>
        <time>2016-06-30T20:01:40.000Z</time>
      </trkpt>
      <trkpt lat="48.01689" lon="7.13823">
        <ele>758.5</ele>
        <time>2016-06-30T20:01:42.000Z</time>
      </trkpt>
      <trkpt lat="48.01704" lon="7.13818">
        <ele>759.1</ele>
        <time>2016-06-30T20:01:44.000Z</time>
      </trkpt>
      <trkpt lat="48.01728" lon="7.13808">
        <ele>761</ele>
        <time>2016-06-30T20:01:47.000Z</time>
      </trkpt>
      <trkpt lat="48.01753" lon="7.13794">
        <ele>763.7</ele>
        <time>2016-06-30T20:01:50.000Z</time>
      </trkpt>
      <trkpt lat="48.01867" lon="7.13712">
        <ele>761.8</ele>
        <time>2016-06-30T20:02:04.000Z</time>
      </trkpt>
      <trkpt lat="48.01883" lon="7.13705">
        <ele>761.5</ele>
        <time>2016-06-30T20:02:06.000Z</time>
      </trkpt>
      <trkpt lat="48.01891" lon="7.13703">
        <ele>760.8</ele>
        <time>2016-06-30T20:02:07.000Z</time>
      </trkpt>
      <trkpt lat="48.01906" lon="7.13705">
        <ele>757.6</ele>
        <time>2016-06-30T20:02:09.000Z</time>
      </trkpt>
      <trkpt lat="48.01912" lon="7.13709">
        <ele>755.1</ele>
        <time>2016-06-30T20:02:10.000Z</time>
      </trkpt>
      <trkpt lat="48.01919" lon="7.13715">
        <ele>752.7</ele>
        <time>2016-06-30T20:02:11.000Z</time>
      </trkpt>
      <trkpt lat="48.0195" lon="7.13756">
        <ele>741.5</ele>
        <time>2016-06-30T20:02:16.000Z</time>
      </trkpt>
      <trkpt lat="48.01957" lon="7.13763">
        <ele>739.7</ele>
        <time>2016-06-30T20:02:17.000Z</time>
      </trkpt>
      <trkpt lat="48.01965" lon="7.13769">
        <ele>738.3</ele>
        <time>2016-06-30T20:02:18.000Z</time>
      </trkpt>
      <trkpt lat="48.01974" lon="7.13773">
        <ele>737.2</ele>
        <time>2016-06-30T20:02:19.000Z</time>
      </trkpt>
      <trkpt lat="48.02085" lon="7.13802">
        <ele>726.4</ele>
        <time>2016-06-30T20:02:31.000Z</time>
      </trkpt>
      <trkpt lat="48.02094" lon="7.13806">
        <ele>726.1</ele>
        <time>2016-06-30T20:02:32.000Z</time>
      </trkpt>
      <trkpt lat="48.02102" lon="7.13811">
        <ele>725.5</ele>
        <time>2016-06-30T20:02:33.000Z</time>
      </trkpt>
      <trkpt lat="48.0211" lon="7.13818">
        <ele>724.7</ele>
        <time>2016-06-30T20:02:34.000Z</time>
      </trkpt>
      <trkpt lat="48.02117" lon="7.13826">
        <ele>723.7</ele>
        <time>2016-06-30T20:02:35.000Z</time>
      </trkpt>
      <trkpt lat="48.02152" lon="7.13875">
        <ele>716.9</ele>
        <time>2016-06-30T20:02:40.000Z</time>
      </trkpt>
      <trkpt lat="48.02159" lon="7.13884">
        <ele>716.2</ele>
        <time>2016-06-30T20:02:41.000Z</time>
      </trkpt>
      <trkpt lat="48.02176" lon="7.13898">
        <ele>714.2</ele>
        <time>2016-06-30T20:02:43.000Z</time>
      </trkpt>
      <trkpt lat="48.02214" lon="7.13922">
        <ele>709.4</ele>
        <time>2016-06-30T20:02:48.000Z</time>
      </trkpt>
      <trkpt lat="48.0222" lon="7.13927">
        <ele>708.4</ele>
        <time>2016-06-30T20:02:49.000Z</time>
      </trkpt>
      <trkpt lat="48.02223" lon="7.13933">
        <ele>707.3</ele>
        <time>2016-06-30T20:02:50.000Z</time>
      </trkpt>
      <trkpt lat="48.02224" lon="7.13939">
        <ele>706.2</ele>
        <time>2016-06-30T20:02:51.000Z</time>
      </trkpt>
      <trkpt lat="48.02223" lon="7.13944">
        <ele>705</ele>
        <time>2016-06-30T20:02:52.000Z</time>
      </trkpt>
      <trkpt lat="48.02219" lon="7.13948">
        <ele>704</ele>
        <time>2016-06-30T20:02:53.000Z</time>
      </trkpt>
      <trkpt lat="48.02215" lon="7.13949">
        <ele>703.5</ele>
        <time>2016-06-30T20:02:54.000Z</time>
      </trkpt>
      <trkpt lat="48.0221" lon="7.13947">
        <ele>703.6</ele>
        <time>2016-06-30T20:02:55.000Z</time>
      </trkpt>
      <trkpt lat="48.0209" lon="7.13864">
        <ele>709.1</ele>
        <time>2016-06-30T20:03:17.000Z</time>
      </trkpt>
      <trkpt lat="48.02082" lon="7.13861">
        <ele>709.1</ele>
        <time>2016-06-30T20:03:18.000Z</time>
      </trkpt>
      <trkpt lat="48.02074" lon="7.13858">
        <ele>709.6</ele>
        <time>2016-06-30T20:03:19.000Z</time>
      </trkpt>
      <trkpt lat="48.02066" lon="7.13856">
        <ele>709.8</ele>
        <time>2016-06-30T20:03:20.000Z</time>
      </trkpt>
      <trkpt lat="48.02057" lon="7.13854">
        <ele>709.8</ele>
        <time>2016-06-30T20:03:21.000Z</time>
      </trkpt>
      <trkpt lat="48.02038" lon="7.13855">
        <ele>709</ele>
        <time>2016-06-30T20:03:23.000Z</time>
      </trkpt>
      <trkpt lat="48.02029" lon="7.13856">
        <ele>708.1</ele>
        <time>2016-06-30T20:03:24.000Z</time>
      </trkpt>
      <trkpt lat="48.02012" lon="7.13861">
        <ele>705.6</ele>
        <time>2016-06-30T20:03:26.000Z</time>
      </trkpt>
      <trkpt lat="48.01972" lon="7.1388">
        <ele>696.6</ele>
        <time>2016-06-30T20:03:31.000Z</time>
      </trkpt>
      <trkpt lat="48.01964" lon="7.13882">
        <ele>695.4</ele>
        <time>2016-06-30T20:03:32.000Z</time>
      </trkpt>
      <trkpt lat="48.01955" lon="7.13881">
        <ele>695.1</ele>
        <time>2016-06-30T20:03:33.000Z</time>
      </trkpt>
      <trkpt lat="48.01947" lon="7.13879">
        <ele>695.5</ele>
        <time>2016-06-30T20:03:34.000Z</time>
      </trkpt>
      <trkpt lat="48.01903" lon="7.13855">
        <ele>707.5</ele>
        <time>2016-06-30T20:03:40.000Z</time>
      </trkpt>
      <trkpt lat="48.01897" lon="7.13853">
        <ele>709.7</ele>
        <time>2016-06-30T20:03:41.000Z</time>
      </trkpt>
      <trkpt lat="48.01891" lon="7.13852">
        <ele>711.2</ele>
        <time>2016-06-30T20:03:42.000Z</time>
      </trkpt>
      <trkpt lat="48.01884" lon="7.13853">
        <ele>712.2</ele>
        <time>2016-06-30T20:03:43.000Z</time>
      </trkpt>
      <trkpt lat="48.01878" lon="7.13856">
        <ele>712.5</ele>
        <time>2016-06-30T20:03:44.000Z</time>
      </trkpt>
      <trkpt lat="48.01872" lon="7.1386">
        <ele>712.1</ele>
        <time>2016-06-30T20:03:45.000Z</time>
      </trkpt>
      <trkpt lat="48.01786" lon="7.13984">
        <ele>682.7</ele>
        <time>2016-06-30T20:03:58.000Z</time>
      </trkpt>
      <trkpt lat="48.01772" lon="7.14001">
        <ele>679.4</ele>
        <time>2016-06-30T20:04:00.000Z</time>
      </trkpt>
      <trkpt lat="48.01756" lon="7.14015">
        <ele>678.7</ele>
        <time>2016-06-30T20:04:02.000Z</time>
      </trkpt>
      <trkpt lat="48.01748" lon="7.1402">
        <ele>679.2</ele>
        <time>2016-06-30T20:04:03.000Z</time>
      </trkpt>
      <trkpt lat="48.0174" lon="7.14024">
        <ele>680.4</ele>
        <time>2016-06-30T20:04:04.000Z</time>
      </trkpt>
      <trkpt lat="48.0171" lon="7.14031">
        <ele>687.5</ele>
        <time>2016-06-30T20:04:08.000Z</time>
      </trkpt>
      <trkpt lat="48.01704" lon="7.14034">
        <ele>688.2</ele>
        <time>2016-06-30T20:04:09.000Z</time>
      </trkpt>
      <trkpt lat="48.01699" lon="7.14039">
        <ele>688.3</ele>
        <time>2016-06-30T20:04:10.000Z</time>
      </trkpt>
      <trkpt lat="48.01694" lon="7.14045">
        <ele>687.8</ele>
        <time>2016-06-30T20:04:11.000Z</time>
      </trkpt>
      <trkpt lat="48.0169" lon="7.14053">
        <ele>686.6</ele>
        <time>2016-06-30T20:04:12.000Z</time>
      </trkpt>
      <trkpt lat="48.01657" lon="7.14127">
        <ele>669.4</ele>
        <time>2016-06-30T20:04:19.000Z</time>
      </trkpt>
      <trkpt lat="48.01645" lon="7.14147">
        <ele>665.6</ele>
        <time>2016-06-30T20:04:21.000Z</time>
      </trkpt>
      <trkpt lat="48.01632" lon="7.14165">
        <ele>663.2</ele>
        <time>2016-06-30T20:04:23.000Z</time>
      </trkpt>
      <trkpt lat="48.01618" lon="7.14182">
        <ele>662.7</ele>
        <time>2016-06-30T20:04:25.000Z</time>
      </trkpt>
      <trkpt lat="48.01461" lon="7.14331">
        <ele>645.7</ele>
        <time>2016-06-30T20:04:45.000Z</time>
      </trkpt>
      <trkpt lat="48.01414" lon="7.14371">
        <ele>653.8</ele>
        <time>2016-06-30T20:04:52.000Z</time>
      </trkpt>
      <trkpt lat="48.01409" lon="7.14376">
        <ele>655</ele>
        <time>2016-06-30T20:04:53.000Z</time>
      </trkpt>
      <trkpt lat="48.01404" lon="7.14382">
        <ele>656</ele>
        <time>2016-06-30T20:04:54.000Z</time>
      </trkpt>
      <trkpt lat="48.01401" lon="7.14388">
        <ele>656.8</ele>
        <time>2016-06-30T20:04:55.000Z</time>
      </trkpt>
      <trkpt lat="48.01399" lon="7.14395">
        <ele>657.2</ele>
        <time>2016-06-30T20:04:56.000Z</time>
      </trkpt>
      <trkpt lat="48.01398" lon="7.14402">
        <ele>657.3</ele>
        <time>2016-06-30T20:04:57.000Z</time>
      </trkpt>
      <trkpt lat="48.01398" lon="7.1441">
        <ele>657</ele>
        <time>2016-06-30T20:04:58.000Z</time>
      </trkpt>
      <trkpt lat="48.014" lon="7.14417">
        <ele>656.7</ele>
        <time>2016-06-30T20:04:59.000Z</time>
      </trkpt>
      <trkpt lat="48.01403" lon="7.1443">
        <ele>659.8</ele>
        <time>2016-06-30T20:05:01.000Z</time>
      </trkpt>
      <trkpt lat="48.01406" lon="7.14435">
        <ele>660.7</ele>
        <time>2016-06-30T20:05:02.000Z</time>
      </trkpt>
      <trkpt lat="48.0141" lon="7.1444">
        <ele>660.9</ele>
        <time>2016-06-30T20:05:03.000Z</time>
      </trkpt>
      <trkpt lat="48.01417" lon="7.14444">
        <ele>660.4</ele>
        <time>2016-06-30T20:05:04.000Z</time>
      </trkpt>
      <trkpt lat="48.01426" lon="7.14447">
        <ele>660.1</ele>
        <time>2016-06-30T20:05:05.000Z</time>
      </trkpt>
      <trkpt lat="48.01435" lon="7.14449">
        <ele>659.1</ele>
        <time>2016-06-30T20:05:06.000Z</time>
      </trkpt>
      <trkpt lat="48.01445" lon="7.14449">
        <ele>657.4</ele>
        <time>2016-06-30T20:05:07.000Z</time>
      </trkpt>
      <trkpt lat="48.01485" lon="7.14443">
        <ele>648.9</ele>
        <time>2016-06-30T20:05:11.000Z</time>
      </trkpt>
      <trkpt lat="48.01526" lon="7.1444">
        <ele>643.1</ele>
        <time>2016-06-30T20:05:15.000Z</time>
      </trkpt>
      <trkpt lat="48.01627" lon="7.1444">
        <ele>633.2</ele>
        <time>2016-06-30T20:05:24.000Z</time>
      </trkpt>
      <trkpt lat="48.01649" lon="7.14438">
        <ele>629.6</ele>
        <time>2016-06-30T20:05:26.000Z</time>
      </trkpt>
      <trkpt lat="48.01742" lon="7.14416">
        <ele>609.9</ele>
        <time>2016-06-30T20:05:35.000Z</time>
      </trkpt>
      <trkpt lat="48.01763" lon="7.14415">
        <ele>606.6</ele>
        <time>2016-06-30T20:05:37.000Z</time>
      </trkpt>
      <trkpt lat="48.01864" lon="7.1443">
        <ele>591.6</ele>
        <time>2016-06-30T20:05:47.000Z</time>
      </trkpt>
      <trkpt lat="48.01874" lon="7.14433">
        <ele>589.8</ele>
        <time>2016-06-30T20:05:48.000Z</time>
      </trkpt>
      <trkpt lat="48.01894" lon="7.14443">
        <ele>587.3</ele>
        <time>2016-06-30T20:05:50.000Z</time>
      </trkpt>
      <trkpt lat="48.01935" lon="7.14471">
        <ele>581.8</ele>
        <time>2016-06-30T20:05:54.000Z</time>
      </trkpt>
      <trkpt lat="48.01954" lon="7.14488">
        <ele>578.2</ele>
        <time>2016-06-30T20:05:56.000Z</time>
      </trkpt>
      <trkpt lat="48.01962" lon="7.14498">
        <ele>576.8</ele>
        <time>2016-06-30T20:05:57.000Z</time>
      </trkpt>
      <trkpt lat="48.02046" lon="7.14671">
        <ele>557.1</ele>
        <time>2016-06-30T20:06:11.000Z</time>
      </trkpt>
      <trkpt lat="48.02076" lon="7.14709">
        <ele>542</ele>
        <time>2016-06-30T20:06:16.000Z</time>
      </trkpt>
      <trkpt lat="48.02079" lon="7.14715">
        <ele>540.4</ele>
        <time>2016-06-30T20:06:17.000Z</time>
      </trkpt>
      <trkpt lat="48.02081" lon="7.14721">
        <ele>539.6</ele>
        <time>2016-06-30T20:06:18.000Z</time>
      </trkpt>
      <trkpt lat="48.0208" lon="7.14727">
        <ele>539.4</ele>
        <time>2016-06-30T20:06:19.000Z</time>
      </trkpt>
      <trkpt lat="48.02077" lon="7.14733">
        <ele>540.1</ele>
        <time>2016-06-30T20:06:20.000Z</time>
      </trkpt>
      <trkpt lat="48.02071" lon="7.14739">
        <ele>541.4</ele>
        <time>2016-06-30T20:06:21.000Z</time>
      </trkpt>
      <trkpt lat="48.02065" lon="7.14743">
        <ele>543</ele>
        <time>2016-06-30T20:06:22.000Z</time>
      </trkpt>
      <trkpt lat="48.02051" lon="7.14746">
        <ele>546.7</ele>
        <time>2016-06-30T20:06:24.000Z</time>
      </trkpt>
      <trkpt lat="48.02045" lon="7.14748">
        <ele>548.4</ele>
        <time>2016-06-30T20:06:25.000Z</time>
      </trkpt>
      <trkpt lat="48.02017" lon="7.14765">
        <ele>554.2</ele>
        <time>2016-06-30T20:06:29.000Z</time>
      </trkpt>
      <trkpt lat="48.0201" lon="7.1477">
        <ele>555.2</ele>
        <time>2016-06-30T20:06:30.000Z</time>
      </trkpt>
      <trkpt lat="48.02005" lon="7.14776">
        <ele>555.6</ele>
        <time>2016-06-30T20:06:31.000Z</time>
      </trkpt>
      <trkpt lat="48.02001" lon="7.14784">
        <ele>555.3</ele>
        <time>2016-06-30T20:06:32.000Z</time>
      </trkpt>
      <trkpt lat="48.01999" lon="7.14792">
        <ele>554.7</ele>
        <time>2016-06-30T20:06:33.000Z</time>
      </trkpt>
      <trkpt lat="48.01999" lon="7.14799">
        <ele>553.7</ele>
        <time>2016-06-30T20:06:34.000Z</time>
      </trkpt>
      <trkpt lat="48.02001" lon="7.14805">
        <ele>552.2</ele>
        <time>2016-06-30T20:06:35.000Z</time>
      </trkpt>
      <trkpt lat="48.02005" lon="7.14809">
        <ele>550.8</ele>
        <time>2016-06-30T20:06:36.000Z</time>
      </trkpt>
      <trkpt lat="48.0201" lon="7.1481">
        <ele>549.5</ele>
        <time>2016-06-30T20:06:37.000Z</time>
      </trkpt>
      <trkpt lat="48.02016" lon="7.14809">
        <ele>548.3</ele>
        <time>2016-06-30T20:06:38.000Z</time>
      </trkpt>
      <trkpt lat="48.02035" lon="7.14797">
        <ele>545.5</ele>
        <time>2016-06-30T20:06:41.000Z</time>
      </trkpt>
      <trkpt lat="48.02043" lon="7.14793">
        <ele>544</ele>
        <time>2016-06-30T20:06:42.000Z</time>
      </trkpt>
      <trkpt lat="48.02053" lon="7.1479">
        <ele>542</ele>
        <time>2016-06-30T20:06:43.000Z</time>
      </trkpt>
      <trkpt lat="48.02073" lon="7.14788">
        <ele>537.4</ele>
        <time>2016-06-30T20:06:45.000Z</time>
      </trkpt>
      <trkpt lat="48.02092" lon="7.14788">
        <ele>533.4</ele>
        <time>2016-06-30T20:06:47.000Z</time>
      </trkpt>
      <trkpt lat="48.02111" lon="7.14792">
        <ele>530.7</ele>
        <time>2016-06-30T20:06:49.000Z</time>
      </trkpt>
      <trkpt lat="48.02146" lon="7.14803">
        <ele>527.3</ele>
        <time>2016-06-30T20:06:53.000Z</time>
      </trkpt>
      <trkpt lat="48.02154" lon="7.14804">
        <ele>526.6</ele>
        <time>2016-06-30T20:06:54.000Z</time>
      </trkpt>
      <trkpt lat="48.02163" lon="7.14803">
        <ele>525.6</ele>
        <time>2016-06-30T20:06:55.000Z</time>
      </trkpt>
      <trkpt lat="48.02172" lon="7.14799">
        <ele>524.6</ele>
        <time>2016-06-30T20:06:56.000Z</time>
      </trkpt>
      <trkpt lat="48.02239" lon="7.14736">
        <ele>509.7</ele>
        <time>2016-06-30T20:07:03.000Z</time>
      </trkpt>
      <trkpt lat="48.0226" lon="7.14722">
        <ele>506.1</ele>
        <time>2016-06-30T20:07:05.000Z</time>
      </trkpt>
      <trkpt lat="48.02292" lon="7.14708">
        <ele>501.3</ele>
        <time>2016-06-30T20:07:08.000Z</time>
      </trkpt>
      <trkpt lat="48.02365" lon="7.1466">
        <ele>489.5</ele>
        <time>2016-06-30T20:07:15.000Z</time>
      </trkpt>
      <trkpt lat="48.02376" lon="7.14655">
        <ele>489.4</ele>
        <time>2016-06-30T20:07:16.000Z</time>
      </trkpt>
      <trkpt lat="48.02458" lon="7.14633">
        <ele>483.5</ele>
        <time>2016-06-30T20:07:23.000Z</time>
      </trkpt>
      <trkpt lat="48.02548" lon="7.14596">
        <ele>472.9</ele>
        <time>2016-06-30T20:07:32.000Z</time>
      </trkpt>
      <trkpt lat="48.02605" lon="7.14583">
        <ele>465.7</ele>
        <time>2016-06-30T20:07:40.000Z</time>
      </trkpt>
      <trkpt lat="48.02657" lon="7.14558">
        <ele>463.2</ele>
        <time>2016-06-30T20:07:49.000Z</time>
      </trkpt>
      <trkpt lat="48.02664" lon="7.14556">
        <ele>462.6</ele>
        <time>2016-06-30T20:07:50.000Z</time>
      </trkpt>
      <trkpt lat="48.0267" lon="7.14558">
        <ele>461.9</ele>
        <time>2016-06-30T20:07:51.000Z</time>
      </trkpt>
      <trkpt lat="48.02675" lon="7.14562">
        <ele>461</ele>
        <time>2016-06-30T20:07:52.000Z</time>
      </trkpt>
      <trkpt lat="48.02679" lon="7.14569">
        <ele>459.9</ele>
        <time>2016-06-30T20:07:53.000Z</time>
      </trkpt>
      <trkpt lat="48.02691" lon="7.1461">
        <ele>460.1</ele>
        <time>2016-06-30T20:07:57.000Z</time>
      </trkpt>
      <trkpt lat="48.02696" lon="7.14618">
        <ele>460.6</ele>
        <time>2016-06-30T20:07:58.000Z</time>
      </trkpt>
      <trkpt lat="48.02703" lon="7.14624">
        <ele>460.8</ele>
        <time>2016-06-30T20:07:59.000Z</time>
      </trkpt>
      <trkpt lat="48.02711" lon="7.14626">
        <ele>460.8</ele>
        <time>2016-06-30T20:08:00.000Z</time>
      </trkpt>
      <trkpt lat="48.02719" lon="7.14625">
        <ele>460.3</ele>
        <time>2016-06-30T20:08:01.000Z</time>
      </trkpt>
      <trkpt lat="48.02772" lon="7.14604">
        <ele>454.2</ele>
        <time>2016-06-30T20:08:07.000Z</time>
      </trkpt>
      <trkpt lat="48.02791" lon="7.146">
        <ele>451.8</ele>
        <time>2016-06-30T20:08:09.000Z</time>
      </trkpt>
      <trkpt lat="48.02801" lon="7.14599">
        <ele>450.7</ele>
        <time>2016-06-30T20:08:10.000Z</time>
      </trkpt>
      <trkpt lat="48.0281" lon="7.146">
        <ele>449.7</ele>
        <time>2016-06-30T20:08:11.000Z</time>
      </trkpt>
      <trkpt lat="48.0282" lon="7.14602">
        <ele>449</ele>
        <time>2016-06-30T20:08:12.000Z</time>
      </trkpt>
      <trkpt lat="48.02828" lon="7.14605">
        <ele>448.4</ele>
        <time>2016-06-30T20:08:13.000Z</time>
      </trkpt>
      <trkpt lat="48.02851" lon="7.14621">
        <ele>448.2</ele>
        <time>2016-06-30T20:08:16.000Z</time>
      </trkpt>
      <trkpt lat="48.02858" lon="7.14623">
        <ele>447.9</ele>
        <time>2016-06-30T20:08:17.000Z</time>
      </trkpt>
      <trkpt lat="48.02864" lon="7.14622">
        <ele>447.4</ele>
        <time>2016-06-30T20:08:18.000Z</time>
      </trkpt>
      <trkpt lat="48.0287" lon="7.14618">
        <ele>446.7</ele>
        <time>2016-06-30T20:08:19.000Z</time>
      </trkpt>
      <trkpt lat="48.02885" lon="7.14602">
        <ele>444.5</ele>
        <time>2016-06-30T20:08:22.000Z</time>
      </trkpt>
      <trkpt lat="48.0289" lon="7.14598">
        <ele>443.8</ele>
        <time>2016-06-30T20:08:23.000Z</time>
      </trkpt>
      <trkpt lat="48.02896" lon="7.14596">
        <ele>443.3</ele>
        <time>2016-06-30T20:08:24.000Z</time>
      </trkpt>
      <trkpt lat="48.02901" lon="7.14596">
        <ele>442.9</ele>
        <time>2016-06-30T20:08:25.000Z</time>
      </trkpt>
      <trkpt lat="48.02907" lon="7.14596">
        <ele>442.7</ele>
        <time>2016-06-30T20:08:26.000Z</time>
      </trkpt>
      <trkpt lat="48.02911" lon="7.14597">
        <ele>442.5</ele>
        <time>2016-06-30T20:08:27.000Z</time>
      </trkpt>
      <trkpt lat="48.02915" lon="7.14599">
        <ele>442.4</ele>
        <time>2016-06-30T20:08:29.000Z</time>
      </trkpt>
      <trkpt lat="48.02915" lon="7.14599">
        <ele>442.4</ele>
        <time>2016-06-30T20:08:30.000Z</time>
      </trkpt>
      <trkpt lat="48.02915" lon="7.146">
        <ele>442.5</ele>
        <time>2016-06-30T20:08:32.000Z</time>
      </trkpt>
      <trkpt lat="48.02915" lon="7.146">
        <ele>442.5</ele>
        <time>2016-06-30T20:08:33.000Z</time>
      </trkpt>
      <trkpt lat="48.02915" lon="7.14602">
        <ele>442.6</ele>
        <time>2016-06-30T20:10:18.000Z</time>
      </trkpt>
      <trkpt lat="48.02915" lon="7.14602">
        <ele>442.7</ele>
        <time>2016-06-30T20:10:20.000Z</time>
      </trkpt>
      <trkpt lat="48.02915" lon="7.14602">
        <ele>442.7</ele>
        <time>2016-06-30T20:10:21.000Z</time>
      </trkpt>
      <trkpt lat="48.02914" lon="7.14602">
        <ele>442.7</ele>
        <time>2016-06-30T20:10:23.000Z</time>
      </trkpt>
      <trkpt lat="48.02914" lon="7.14603">
        <ele>442.8</ele>
        <time>2016-06-30T20:10:24.000Z</time>
      </trkpt>
      <trkpt lat="48.02914" lon="7.14603">
        <ele>442.9</ele>
        <time>2016-06-30T20:10:26.000Z</time>
      </trkpt>
      <trkpt lat="48.02913" lon="7.14604">
        <ele>442.9</ele>
        <time>2016-06-30T20:10:27.000Z</time>
      </trkpt>
      <trkpt lat="48.02914" lon="7.14612">
        <ele>443.6</ele>
        <time>2016-06-30T20:10:32.000Z</time>
      </trkpt>
      <trkpt lat="48.02914" lon="7.14618">
        <ele>444</ele>
        <time>2016-06-30T20:10:36.000Z</time>
      </trkpt>
      <trkpt lat="48.02914" lon="7.14618">
        <ele>444.1</ele>
        <time>2016-06-30T20:10:37.000Z</time>
      </trkpt>
      <trkpt lat="48.02914" lon="7.14619">
        <ele>444.1</ele>
        <time>2016-06-30T20:10:38.000Z</time>
      </trkpt>
      <trkpt lat="48.02913" lon="7.14619">
        <ele>444.2</ele>
        <time>2016-06-30T20:10:41.000Z</time>
      </trkpt>
      <trkpt lat="48.02913" lon="7.14619">
        <ele>444.2</ele>
        <time>2016-06-30T20:10:45.000Z</time>
      </trkpt>
      <trkpt lat="48.02912" lon="7.14619">
        <ele>444.2</ele>
        <time>2016-06-30T20:10:49.000Z</time>
      </trkpt>
      <trkpt lat="48.02912" lon="7.14619">
        <ele>444.3</ele>
        <time>2016-06-30T20:10:52.000Z</time>
      </trkpt>
      <trkpt lat="48.02912" lon="7.14619">
        <ele>444.3</ele>
        <time>2016-06-30T20:12:52.000Z</time>
      </trkpt>
      <trkpt lat="48.02913" lon="7.14621">
        <ele>444.4</ele>
        <time>2016-06-30T20:13:02.000Z</time>
      </trkpt>
      <trkpt lat="48.02913" lon="7.14621">
        <ele>444.4</ele>
        <time>2016-06-30T20:13:05.000Z</time>
      </trkpt>
      <trkpt lat="48.02913" lon="7.1462">
        <ele>444.4</ele>
        <time>2016-06-30T20:13:39.000Z</time>
      </trkpt>
      <trkpt lat="48.02913" lon="7.14613">
        <ele>443.7</ele>
        <time>2016-06-30T20:13:44.000Z</time>
      </trkpt>
      <trkpt lat="48.02913" lon="7.14613">
        <ele>443.7</ele>
        <time>2016-06-30T20:13:46.000Z</time>
      </trkpt>
      <trkpt lat="48.02912" lon="7.14612">
        <ele>443.7</ele>
        <time>2016-06-30T20:13:48.000Z</time>
      </trkpt>
      <trkpt lat="48.02912" lon="7.14612">
        <ele>443.7</ele>
        <time>2016-06-30T20:13:50.000Z</time>
      </trkpt>
      <trkpt lat="48.02912" lon="7.14612">
        <ele>443.7</ele>
        <time>2016-06-30T20:13:52.000Z</time>
      </trkpt>
      <trkpt lat="48.02912" lon="7.14612">
        <ele>443.7</ele>
        <time>2016-06-30T20:14:02.000Z</time>
      </trkpt>
      <trkpt lat="48.02912" lon="7.14612">
        <ele>443.7</ele>
        <time>2016-06-30T20:14:09.000Z</time>
      </trkpt>
    </trkseg>
  </trk>
</gpx>